Observation data for Van Horn on 12/09/2018      Previous  Date       Current Mesonet Observations  Soil Data  Daily Summary Page  Observations in Plain Language
KVA1 090600Z 21009KT 04/03 A303 RMK A01 T00420031  RH  092%=      5-min Rain = 0
KVA1 090601Z 21009KT 04/03 A303 RMK A01 T00420031  RH  092%=      5-min Rain = 0
KVA1 090602Z 21009KT 04/03 A303 RMK A01 T00420031  RH  092%=      5-min Rain = 0
KVA1 090603Z 22009KT 04/03 A3031 RMK A01 T00420031  RH  092%=      5-min Rain = 0
KVA1 090604Z 21010KT 04/03 A3031 RMK A01 T00410030  RH  092%=      5-min Rain = 0
KVA1 090605Z 21009KT 04/03 A3031 RMK A01 T00410030  RH  093%=      5-min Rain = 0
KVA1 090606Z 22009KT 04/03 A3031 RMK A01 T00410030  RH  093%=      5-min Rain = 0
KVA1 090607Z 22009KT 04/03 A3031 RMK A01 T00410030  RH  093%=      5-min Rain = 0
KVA1 090608Z 22009KT 04/03 A3031 RMK A01 T00410030  RH  093%=      5-min Rain = 0
KVA1 090609Z 22008KT 04/03 A3031 RMK A01 T00410030  RH  093%=      5-min Rain = 0
KVA1 090610Z 22008KT 04/03 A3031 RMK A01 T00410030  RH  093%=      5-min Rain = 0
KVA1 090611Z 22009KT 04/03 A3031 RMK A01 T00410030  RH  093%=      5-min Rain = 0
KVA1 090612Z 22008KT 04/03 A3031 RMK A01 T00410030  RH  093%=      5-min Rain = 0
KVA1 090613Z 22009KT 04/03 A3031 RMK A01 T00410030  RH  093%=      5-min Rain = 0
KVA1 090614Z 22009KT 04/03 A3031 RMK A01 T00410030  RH  093%=      5-min Rain = 0
KVA1 090615Z 22009KT 04/03 A3031 RMK A01 T00410030  RH  093%=      5-min Rain = 0
KVA1 090616Z 22009KT 04/03 A3031 RMK A01 T00410030  RH  093%=      5-min Rain = 0
KVA1 090617Z 22008KT 04/03 A3031 RMK A01 T00410030  RH  092%=      5-min Rain = 0
KVA1 090618Z 23007KT 04/03 A3031 RMK A01 T00410030  RH  092%=      5-min Rain = 0
KVA1 090619Z 23007KT 04/03 A3031 RMK A01 T00400029  RH  092%=      5-min Rain = 0
KVA1 090620Z 23007KT 04/03 A3031 RMK A01 T00390028  RH  092%=      5-min Rain = 0
KVA1 090621Z 23007KT 04/03 A3031 RMK A01 T00390028  RH  092%=      5-min Rain = 0
KVA1 090622Z 23007KT 04/03 A3031 RMK A01 T00380027  RH  093%=      5-min Rain = 0
KVA1 090623Z 24007KT 04/03 A3031 RMK A01 T00370026  RH  093%=      5-min Rain = 0
KVA1 090624Z 23006KT 04/03 A3031 RMK A01 T00360026  RH  093%=      5-min Rain = 0
KVA1 090625Z 23007KT 04/03 A3031 RMK A01 T00360026  RH  093%=      5-min Rain = 0
KVA1 090626Z 23007KT 04/03 A3031 RMK A01 T00350025  RH  094%=      5-min Rain = 0
KVA1 090627Z 23007KT 04/03 A3031 RMK A01 T00350026  RH  094%=      5-min Rain = 0
KVA1 090628Z 23007KT 04/03 A3031 RMK A01 T00350026  RH  094%=      5-min Rain = 0
KVA1 090629Z 22008KT 04/03 A3031 RMK A01 T00350026  RH  094%=      5-min Rain = 0
KVA1 090630Z 22007KT 04/03 A3031 RMK A01 T00350027  RH  094%=      5-min Rain = 0
KVA1 090631Z 22007KT 04/03 A3031 RMK A01 T00350027  RH  094%=      5-min Rain = 0
KVA1 090632Z 22007KT 04/03 A3031 RMK A01 T00350026  RH  094%=      5-min Rain = 0
KVA1 090633Z 22007KT 04/03 A3031 RMK A01 T00350027  RH  094%=      5-min Rain = 0
KVA1 090634Z 21007KT 04/03 A3031 RMK A01 T00350026  RH  094%=      5-min Rain = 0
KVA1 090635Z 21007KT 04/03 A3031 RMK A01 T00350027  RH  094%=      5-min Rain = 0
KVA1 090636Z 21007KT 04/03 A3031 RMK A01 T00350026  RH  094%=      5-min Rain = 0
KVA1 090637Z 21006KT 04/03 A3031 RMK A01 T00350026  RH  094%=      5-min Rain = 0
KVA1 090638Z 21006KT 03/03 A3031 RMK A01 T00340025  RH  094%=      5-min Rain = 0
KVA1 090639Z 22006KT 03/03 A3031 RMK A01 T00340025  RH  094%=      5-min Rain = 0
KVA1 090640Z 22006KT 03/03 A3031 RMK A01 T00330025  RH  094%=      5-min Rain = 0
KVA1 090641Z 22005KT 03/03 A303 RMK A01 T00330025  RH  094%=      5-min Rain = 0
KVA1 090642Z 22006KT 03/03 A303 RMK A01 T00330025  RH  094%=      5-min Rain = 0
KVA1 090643Z 22006KT 03/03 A303 RMK A01 T00330025  RH  095%=      5-min Rain = 0
KVA1 090644Z 23006KT 03/03 A303 RMK A01 T00320025  RH  095%=      5-min Rain = 0
KVA1 090645Z 23006KT 03/02 A303 RMK A01 T00320024  RH  095%=      5-min Rain = 0
KVA1 090646Z 23005KT 03/02 A303 RMK A01 T00320024  RH  095%=      5-min Rain = 0
KVA1 090647Z 24005KT 03/02 A303 RMK A01 T00310024  RH  095%=      5-min Rain = 0
KVA1 090648Z 23005KT 03/02 A303 RMK A01 T00300023  RH  095%=      5-min Rain = 0
KVA1 090649Z 24005KT 03/02 A303 RMK A01 T00300023  RH  095%=      5-min Rain = 0
KVA1 090650Z 24005KT 03/02 A303 RMK A01 T00300023  RH  095%=      5-min Rain = 0
KVA1 090651Z 24006KT 03/02 A303 RMK A01 T00290023  RH  095%=      5-min Rain = 0
KVA1 090652Z 23005KT 03/02 A303 RMK A01 T00290022  RH  096%=      5-min Rain = 0
KVA1 090653Z 24005KT 03/02 A303 RMK A01 T00290022  RH  096%=      5-min Rain = 0
KVA1 090654Z 24006KT 03/02 A303 RMK A01 T00290022  RH  096%=      5-min Rain = 0
KVA1 090655Z 24005KT 03/02 A303 RMK A01 T00280022  RH  096%=      5-min Rain = 0
KVA1 090656Z 24005KT 03/02 A303 RMK A01 T00280022  RH  096%=      5-min Rain = 0
KVA1 090657Z 24005KT 03/02 A303 RMK A01 T00270021  RH  096%=      5-min Rain = 0
KVA1 090658Z 24005KT 03/02 A303 RMK A01 T00270021  RH  096%=      5-min Rain = 0
KVA1 090659Z 25006KT 03/02 A303 RMK A01 T00270021  RH  096%=      5-min Rain = 0
KVA1 090700Z 24006KT 03/02 A303 RMK A01 T00270021  RH  096%=      5-min Rain = 0
KVA1 090701Z 25006KT 03/02 A303 RMK A01 T00270021  RH  096%=      5-min Rain = 0
KVA1 090702Z 25006KT 03/02 A303 RMK A01 T00270021  RH  096%=      5-min Rain = 0
KVA1 090703Z 25006KT 03/02 A303 RMK A01 T00270021  RH  096%=      5-min Rain = 0
KVA1 090704Z 25006KT 03/02 A303 RMK A01 T00270021  RH  096%=      5-min Rain = 0
KVA1 090705Z 25005KT 03/02 A303 RMK A01 T00260021  RH  096%=      5-min Rain = 0
KVA1 090706Z 25005KT 03/02 A303 RMK A01 T00260021  RH  096%=      5-min Rain = 0
KVA1 090707Z 25006KT 03/02 A303 RMK A01 T00260021  RH  096%=      5-min Rain = 0
KVA1 090708Z 24006KT 03/02 A303 RMK A01 T00260021  RH  097%=      5-min Rain = 0
KVA1 090709Z 24007KT 03/02 A303 RMK A01 T00260021  RH  097%=      5-min Rain = 0
KVA1 090710Z 24007KT 03/02 A303 RMK A01 T00260021  RH  097%=      5-min Rain = 0
KVA1 090711Z 24006KT 03/02 A303 RMK A01 T00260021  RH  097%=      5-min Rain = 0
KVA1 090712Z 24008KT 03/02 A303 RMK A01 T00260022  RH  097%=      5-min Rain = 0
KVA1 090713Z 23007KT 03/02 A303 RMK A01 T00260022  RH  097%=      5-min Rain = 0
KVA1 090714Z 24006KT 03/02 A303 RMK A01 T00270023  RH  097%=      5-min Rain = 0
KVA1 090715Z 23006KT 03/02 A303 RMK A01 T00280023  RH  097%=      5-min Rain = 0
KVA1 090716Z 23007KT 03/02 A303 RMK A01 T00280024  RH  097%=      5-min Rain = 0
KVA1 090717Z 23006KT 03/03 A303 RMK A01 T00300025  RH  097%=      5-min Rain = 0
KVA1 090718Z 24005KT 03/03 A303 RMK A01 T00300026  RH  097%=      5-min Rain = 0
KVA1 090719Z 23005KT 03/03 A303 RMK A01 T00300025  RH  097%=      5-min Rain = 0
KVA1 090720Z 24004KT 03/02 A303 RMK A01 T00290024  RH  096%=      5-min Rain = 0
KVA1 090721Z 24004KT 03/02 A303 RMK A01 T00290023  RH  096%=      5-min Rain = 0
KVA1 090722Z 24003KT 03/02 A303 RMK A01 T00280022  RH  096%=      5-min Rain = 0
KVA1 090723Z 25003KT 03/02 A303 RMK A01 T00270021  RH  096%=      5-min Rain = 0
KVA1 090724Z 26003KT 03/02 A303 RMK A01 T00270021  RH  096%=      5-min Rain = 0
KVA1 090725Z 27003KT 03/02 A303 RMK A01 T00260019  RH  096%=      5-min Rain = 0
KVA1 090726Z 26003KT 03/02 A303 RMK A01 T00250019  RH  096%=      5-min Rain = 0
KVA1 090727Z 27003KT 02/02 A303 RMK A01 T00240018  RH  096%=      5-min Rain = 0
KVA1 090728Z 28004KT 02/02 A303 RMK A01 T00230017  RH  096%=      5-min Rain = 0
KVA1 090729Z 28004KT 02/02 A303 RMK A01 T00220015  RH  096%=      5-min Rain = 0
KVA1 090730Z 28004KT 02/02 A303 RMK A01 T00210015  RH  096%=      5-min Rain = 0
KVA1 090731Z 28004KT 02/02 A303 RMK A01 T00210015  RH  096%=      5-min Rain = 0
KVA1 090732Z 28004KT 02/02 A303 RMK A01 T00200015  RH  096%=      5-min Rain = 0
KVA1 090733Z 27004KT 02/02 A303 RMK A01 T00200015  RH  096%=      5-min Rain = 0
KVA1 090734Z 26004KT 02/02 A303 RMK A01 T00200015  RH  096%=      5-min Rain = 0
KVA1 090735Z 26003KT 02/02 A303 RMK A01 T00210016  RH  097%=      5-min Rain = 0
KVA1 090736Z 27003KT 02/02 A3031 RMK A01 T00210016  RH  097%=      5-min Rain = 0
KVA1 090737Z 28003KT 02/02 A3031 RMK A01 T00210017  RH  097%=      5-min Rain = 0
KVA1 090738Z 28003KT 02/02 A3031 RMK A01 T00220017  RH  097%=      5-min Rain = 0
KVA1 090739Z 27002KT 02/02 A3031 RMK A01 T00230019  RH  097%=      5-min Rain = 0
KVA1 090740Z 27002KT 02/02 A3031 RMK A01 T00230019  RH  097%=      5-min Rain = 0
KVA1 090741Z 27002KT 02/02 A3031 RMK A01 T00230019  RH  097%=      5-min Rain = 0
KVA1 090742Z 27002KT 02/02 A3031 RMK A01 T00240020  RH  097%=      5-min Rain = 0
KVA1 090743Z 26003KT 02/02 A3031 RMK A01 T00240020  RH  097%=      5-min Rain = 0
KVA1 090744Z 25003KT 02/02 A3031 RMK A01 T00230019  RH  097%=      5-min Rain = 0
KVA1 090745Z 25004KT 02/02 A3031 RMK A01 T00230018  RH  097%=      5-min Rain = 0
KVA1 090746Z 25004KT 02/02 A3031 RMK A01 T00220018  RH  097%=      5-min Rain = 0
KVA1 090747Z 24004KT 02/02 A3031 RMK A01 T00220018  RH  097%=      5-min Rain = 0
KVA1 090748Z 24004KT 02/02 A3031 RMK A01 T00220018  RH  097%=      5-min Rain = 0
KVA1 090749Z 24003KT 02/02 A3031 RMK A01 T00220018  RH  097%=      5-min Rain = 0
KVA1 090750Z 24003KT 02/02 A303 RMK A01 T00220017  RH  097%=      5-min Rain = 0
KVA1 090751Z 25003KT 02/02 A303 RMK A01 T00210017  RH  097%=      5-min Rain = 0
KVA1 090752Z 25003KT 02/02 A3031 RMK A01 T00220017  RH  097%=      5-min Rain = 0
KVA1 090753Z 25003KT 02/02 A3031 RMK A01 T00210017  RH  097%=      5-min Rain = 0
KVA1 090754Z 24003KT 02/02 A3031 RMK A01 T00210017  RH  097%=      5-min Rain = 0
KVA1 090755Z 24003KT 02/02 A3031 RMK A01 T00210017  RH  097%=      5-min Rain = 0
KVA1 090756Z 23004KT 02/02 A3031 RMK A01 T00220018  RH  097%=      5-min Rain = 0
KVA1 090757Z 23004KT 02/02 A3031 RMK A01 T00210017  RH  097%=      5-min Rain = 0
KVA1 090758Z 23004KT 02/02 A3031 RMK A01 T00220018  RH  097%=      5-min Rain = 0
KVA1 090759Z 22004KT 02/02 A303 RMK A01 T00220019  RH  097%=      5-min Rain = 0
KVA1 090800Z 22004KT 02/02 A303 RMK A01 T00220019  RH  097%=      5-min Rain = 0
KVA1 090801Z 22004KT 02/02 A303 RMK A01 T00230019  RH  097%=      5-min Rain = 0
KVA1 090802Z 22004KT 02/02 A303 RMK A01 T00230019  RH  097%=      5-min Rain = 0
KVA1 090803Z 22004KT 02/02 A303 RMK A01 T00220018  RH  097%=      5-min Rain = 0
KVA1 090804Z 22004KT 02/02 A303 RMK A01 T00220018  RH  097%=      5-min Rain = 0
KVA1 090805Z 22005KT 02/02 A303 RMK A01 T00210017  RH  097%=      5-min Rain = 0
KVA1 090806Z 22005KT 02/02 A303 RMK A01 T00200016  RH  097%=      5-min Rain = 0
KVA1 090807Z 22005KT 02/02 A303 RMK A01 T00190015  RH  097%=      5-min Rain = 0
KVA1 090808Z 22005KT 02/01 A303 RMK A01 T00190014  RH  097%=      5-min Rain = 0
KVA1 090809Z 22005KT 02/01 A303 RMK A01 T00180014  RH  097%=      5-min Rain = 0
KVA1 090810Z 23005KT 02/01 A303 RMK A01 T00180013  RH  097%=      5-min Rain = 0
KVA1 090811Z 23005KT 02/01 A303 RMK A01 T00180014  RH  097%=      5-min Rain = 0
KVA1 090812Z 23005KT 02/01 A303 RMK A01 T00180013  RH  097%=      5-min Rain = 0
KVA1 090813Z 22006KT 02/01 A303 RMK A01 T00180014  RH  097%=      5-min Rain = 0
KVA1 090814Z 22005KT 02/02 A303 RMK A01 T00190015  RH  097%=      5-min Rain = 0
KVA1 090815Z 22006KT 02/02 A303 RMK A01 T00190015  RH  097%=      5-min Rain = 0
KVA1 090816Z 22006KT 02/02 A303 RMK A01 T00190016  RH  097%=      5-min Rain = 0
KVA1 090817Z 22005KT 02/02 A303 RMK A01 T00190016  RH  097%=      5-min Rain = 0
KVA1 090818Z 22005KT 02/02 A303 RMK A01 T00190016  RH  097%=      5-min Rain = 0
KVA1 090819Z 22005KT 02/02 A303 RMK A01 T00190015  RH  097%=      5-min Rain = 0
KVA1 090820Z 22006KT 02/02 A303 RMK A01 T00190015  RH  097%=      5-min Rain = 0
KVA1 090821Z 22006KT 02/02 A303 RMK A01 T00190015  RH  097%=      5-min Rain = 0
KVA1 090822Z 22006KT 02/02 A303 RMK A01 T00190015  RH  097%=      5-min Rain = 0
KVA1 090823Z 22005KT 02/02 A303 RMK A01 T00190015  RH  097%=      5-min Rain = 0
KVA1 090824Z 22005KT 02/02 A303 RMK A01 T00190015  RH  097%=      5-min Rain = 0
KVA1 090825Z 23005KT 02/02 A3031 RMK A01 T00190015  RH  097%=      5-min Rain = 0
KVA1 090826Z 23005KT 02/01 A3031 RMK A01 T00180014  RH  097%=      5-min Rain = 0
KVA1 090827Z 22006KT 02/01 A3031 RMK A01 T00180014  RH  097%=      5-min Rain = 0
KVA1 090828Z 22006KT 02/01 A303 RMK A01 T00170013  RH  097%=      5-min Rain = 0
KVA1 090829Z 22004KT 02/01 A303 RMK A01 T00180014  RH  097%=      5-min Rain = 0
KVA1 090830Z 23003KT 02/01 A3031 RMK A01 T00170013  RH  097%=      5-min Rain = 0
KVA1 090831Z 24004KT 02/01 A3031 RMK A01 T00170013  RH  097%=      5-min Rain = 0
KVA1 090832Z 23005KT 02/01 A3031 RMK A01 T00170012  RH  097%=      5-min Rain = 0
KVA1 090833Z 22004KT 02/01 A303 RMK A01 T00160012  RH  097%=      5-min Rain = 0
KVA1 090834Z 23003KT 02/01 A303 RMK A01 T00160012  RH  097%=      5-min Rain = 0
KVA1 090835Z 23005KT 02/01 A303 RMK A01 T00160011  RH  097%=      5-min Rain = 0
KVA1 090836Z 23005KT 02/01 A303 RMK A01 T00160011  RH  097%=      5-min Rain = 0
KVA1 090837Z 22005KT 02/01 A303 RMK A01 T00150011  RH  097%=      5-min Rain = 0
KVA1 090838Z 22005KT 02/01 A303 RMK A01 T00150011  RH  097%=      5-min Rain = 0
KVA1 090839Z 22005KT 02/01 A303 RMK A01 T00150011  RH  097%=      5-min Rain = 0
KVA1 090840Z 23005KT 01/01 A303 RMK A01 T00140010  RH  097%=      5-min Rain = 0
KVA1 090841Z 23006KT 01/01 A303 RMK A01 T00140010  RH  097%=      5-min Rain = 0
KVA1 090842Z 23006KT 01/01 A303 RMK A01 T00140010  RH  097%=      5-min Rain = 0
KVA1 090843Z 22005KT 01/01 A303 RMK A01 T00140010  RH  097%=      5-min Rain = 0
KVA1 090844Z 23005KT 01/01 A303 RMK A01 T00140010  RH  097%=      5-min Rain = 0
KVA1 090845Z 23006KT 01/01 A303 RMK A01 T00140011  RH  097%=      5-min Rain = 0
KVA1 090846Z 22006KT 01/01 A303 RMK A01 T00140011  RH  097%=      5-min Rain = 0
KVA1 090847Z 21005KT 01/01 A303 RMK A01 T00140011  RH  097%=      5-min Rain = 0
KVA1 090848Z 22005KT 01/01 A303 RMK A01 T00140010  RH  098%=      5-min Rain = 0
KVA1 090849Z 22006KT 02/01 A303 RMK A01 T00150011  RH  098%=      5-min Rain = 0
KVA1 090850Z 22006KT 02/01 A303 RMK A01 T00150012  RH  098%=      5-min Rain = 0
KVA1 090851Z 21005KT 02/01 A303 RMK A01 T00150012  RH  098%=      5-min Rain = 0
KVA1 090852Z 22005KT 02/01 A303 RMK A01 T00150012  RH  098%=      5-min Rain = 0
KVA1 090853Z 23005KT 02/01 A303 RMK A01 T00150012  RH  098%=      5-min Rain = 0
KVA1 090854Z 22004KT 02/01 A303 RMK A01 T00150011  RH  098%=      5-min Rain = 0
KVA1 090855Z 21005KT 01/01 A303 RMK A01 T00140011  RH  097%=      5-min Rain = 0
KVA1 090856Z 22005KT 01/01 A303 RMK A01 T00140011  RH  097%=      5-min Rain = 0
KVA1 090857Z 23005KT 01/01 A303 RMK A01 T00140011  RH  098%=      5-min Rain = 0
KVA1 090858Z 22005KT 01/01 A303 RMK A01 T00140010  RH  098%=      5-min Rain = 0
KVA1 090859Z 22005KT 01/01 A303 RMK A01 T00140010  RH  097%=      5-min Rain = 0
KVA1 090900Z 22005KT 01/01 A303 RMK A01 T00130010  RH  097%=      5-min Rain = 0
KVA1 090901Z 23005KT 01/01 A303 RMK A01 T00130010  RH  098%=      5-min Rain = 0
KVA1 090902Z 22005KT 01/01 A303 RMK A01 T00130010  RH  098%=      5-min Rain = 0
KVA1 090903Z 22005KT 01/01 A303 RMK A01 T00130010  RH  098%=      5-min Rain = 0
KVA1 090904Z 22005KT 01/01 A303 RMK A01 T00140010  RH  098%=      5-min Rain = 0
KVA1 090905Z 22005KT 01/01 A303 RMK A01 T00130010  RH  098%=      5-min Rain = 0
KVA1 090906Z 21004KT 01/01 A303 RMK A01 T00130010  RH  098%=      5-min Rain = 0
KVA1 090907Z 21004KT 01/01 A303 RMK A01 T00130010  RH  098%=      5-min Rain = 0
KVA1 090908Z 21004KT 01/01 A303 RMK A01 T00130010  RH  098%=      5-min Rain = 0
KVA1 090909Z 22004KT 01/01 A303 RMK A01 T00130010  RH  098%=      5-min Rain = 0
KVA1 090910Z 22004KT 01/01 A303 RMK A01 T00140010  RH  098%=      5-min Rain = 0
KVA1 090911Z 21004KT 01/01 A303 RMK A01 T00130010  RH  098%=      5-min Rain = 0
KVA1 090912Z 22004KT 01/01 A303 RMK A01 T00130010  RH  098%=      5-min Rain = 0
KVA1 090913Z 23005KT 01/01 A303 RMK A01 T00130010  RH  098%=      5-min Rain = 0
KVA1 090914Z 23005KT 01/01 A303 RMK A01 T00130010  RH  098%=      5-min Rain = 0
KVA1 090915Z 23006KT 01/01 A303 RMK A01 T00130010  RH  098%=      5-min Rain = 0
KVA1 090916Z 23006KT 01/01 A303 RMK A01 T00130010  RH  098%=      5-min Rain = 0
KVA1 090917Z 22006KT 01/01 A303 RMK A01 T00130010  RH  098%=      5-min Rain = 0
KVA1 090918Z 23006KT 01/01 A303 RMK A01 T00130010  RH  098%=      5-min Rain = 0
KVA1 090919Z 23006KT 01/01 A303 RMK A01 T00140011  RH  098%=      5-min Rain = 0
KVA1 090920Z 22005KT 01/01 A303 RMK A01 T00140011  RH  098%=      5-min Rain = 0
KVA1 090921Z 22005KT 01/01 A303 RMK A01 T00140011  RH  098%=      5-min Rain = 0
KVA1 090922Z 22005KT 01/01 A303 RMK A01 T00140011  RH  098%=      5-min Rain = 0
KVA1 090923Z 23005KT 02/01 A303 RMK A01 T00150012  RH  098%=      5-min Rain = 0
KVA1 090924Z 23005KT 02/01 A303 RMK A01 T00150012  RH  098%=      5-min Rain = 0
KVA1 090925Z 23004KT 02/01 A303 RMK A01 T00150012  RH  098%=      5-min Rain = 0
KVA1 090926Z 23004KT 02/01 A303 RMK A01 T00150012  RH  098%=      5-min Rain = 0
KVA1 090927Z 23004KT 02/01 A303 RMK A01 T00150012  RH  098%=      5-min Rain = 0
KVA1 090928Z 23004KT 01/01 A303 RMK A01 T00140011  RH  098%=      5-min Rain = 0
KVA1 090929Z 23004KT 01/01 A303 RMK A01 T00130010  RH  098%=      5-min Rain = 0.01
KVA1 090930Z 23004KT 01/01 A303 RMK A01 T00130010  RH  098%=      5-min Rain = 0
KVA1 090931Z 23004KT 01/01 A303 RMK A01 T00130010  RH  098%=      5-min Rain = 0
KVA1 090932Z 22004KT 01/01 A303 RMK A01 T00130010  RH  098%=      5-min Rain = 0
KVA1 090933Z 23003KT 01/01 A303 RMK A01 T00130010  RH  098%=      5-min Rain = 0
KVA1 090934Z 23003KT 01/01 A303 RMK A01 T00130010  RH  098%=      5-min Rain = 0
KVA1 090935Z 24002KT 01/01 A303 RMK A01 T00120009  RH  098%=      5-min Rain = 0
KVA1 090936Z 23002KT 01/01 A303 RMK A01 T00120009  RH  098%=      5-min Rain = 0
KVA1 090937Z 23002KT 01/01 A303 RMK A01 T00120008  RH  098%=      5-min Rain = 0
KVA1 090938Z 23002KT 01/01 A303 RMK A01 T00110008  RH  098%=      5-min Rain = 0
KVA1 090939Z 22002KT 01/01 A303 RMK A01 T00110008  RH  098%=      5-min Rain = 0
KVA1 090940Z 22003KT 01/01 A303 RMK A01 T00110008  RH  098%=      5-min Rain = 0
KVA1 090941Z 22003KT 01/01 A303 RMK A01 T00110008  RH  098%=      5-min Rain = 0
KVA1 090942Z 22003KT 01/01 A303 RMK A01 T00110008  RH  098%=      5-min Rain = 0
KVA1 090943Z 22003KT 01/01 A303 RMK A01 T00110008  RH  098%=      5-min Rain = 0
KVA1 090944Z 22004KT 01/01 A303 RMK A01 T00120009  RH  098%=      5-min Rain = 0
KVA1 090945Z 22004KT 01/01 A303 RMK A01 T00120009  RH  098%=      5-min Rain = 0
KVA1 090946Z 22004KT 01/01 A303 RMK A01 T00120009  RH  098%=      5-min Rain = 0
KVA1 090947Z 22004KT 01/01 A303 RMK A01 T00120009  RH  098%=      5-min Rain = 0
KVA1 090948Z 22003KT 01/01 A303 RMK A01 T00120009  RH  098%=      5-min Rain = 0
KVA1 090949Z 22003KT 01/01 A303 RMK A01 T00120009  RH  098%=      5-min Rain = 0
KVA1 090950Z 22003KT 01/01 A303 RMK A01 T00110008  RH  098%=      5-min Rain = 0
KVA1 090951Z 21003KT 01/01 A303 RMK A01 T00110008  RH  098%=      5-min Rain = 0
KVA1 090952Z 21004KT 01/01 A303 RMK A01 T00100007  RH  098%=      5-min Rain = 0
KVA1 090953Z 21004KT 01/01 A303 RMK A01 T00100007  RH  098%=      5-min Rain = 0
KVA1 090954Z 21005KT 01/01 A303 RMK A01 T00100007  RH  098%=      5-min Rain = 0
KVA1 090955Z 22005KT 01/01 A303 RMK A01 T00100008  RH  098%=      5-min Rain = 0
KVA1 090956Z 22005KT 01/01 A303 RMK A01 T00110008  RH  098%=      5-min Rain = 0
KVA1 090957Z 23005KT 01/01 A303 RMK A01 T00110008  RH  098%=      5-min Rain = 0
KVA1 090958Z 22004KT 01/01 A303 RMK A01 T00110008  RH  098%=      5-min Rain = 0
KVA1 090959Z 23005KT 01/01 A303 RMK A01 T00110008  RH  098%=      5-min Rain = 0
KVA1 091000Z 23005KT 01/01 A303 RMK A01 T00110008  RH  098%=      5-min Rain = 0
KVA1 091001Z 22006KT 01/01 A303 RMK A01 T00100007  RH  098%=      5-min Rain = 0
KVA1 091002Z 22006KT 01/01 A303 RMK A01 T00100007  RH  098%=      5-min Rain = 0
KVA1 091003Z 22006KT 01/01 A303 RMK A01 T00100007  RH  098%=      5-min Rain = 0
KVA1 091004Z 21006KT 01/01 A303 RMK A01 T00100007  RH  098%=      5-min Rain = 0
KVA1 091005Z 22006KT 01/01 A303 RMK A01 T00100007  RH  098%=      5-min Rain = 0
KVA1 091006Z 22006KT 01/01 A303 RMK A01 T00100007  RH  098%=      5-min Rain = 0
KVA1 091007Z 21006KT 01/01 A303 RMK A01 T00100007  RH  098%=      5-min Rain = 0
KVA1 091008Z 21006KT 01/01 A303 RMK A01 T00100007  RH  098%=      5-min Rain = 0
KVA1 091009Z 21006KT 01/01 A303 RMK A01 T00100007  RH  098%=      5-min Rain = 0
KVA1 091010Z 21005KT 01/01 A303 RMK A01 T00100007  RH  098%=      5-min Rain = 0
KVA1 091011Z 21005KT 01/01 A303 RMK A01 T00100007  RH  098%=      5-min Rain = 0
KVA1 091012Z 21005KT 01/01 A303 RMK A01 T00100007  RH  098%=      5-min Rain = 0
KVA1 091013Z 21005KT 01/01 A303 RMK A01 T00100007  RH  098%=      5-min Rain = 0
KVA1 091014Z 21005KT 01/01 A303 RMK A01 T00100008  RH  098%=      5-min Rain = 0
KVA1 091015Z 21006KT 01/01 A303 RMK A01 T00100008  RH  098%=      5-min Rain = 0
KVA1 091016Z 21006KT 01/01 A303 RMK A01 T00110008  RH  098%=      5-min Rain = 0
KVA1 091017Z 21006KT 01/01 A303 RMK A01 T00110008  RH  098%=      5-min Rain = 0
KVA1 091018Z 21005KT 01/01 A303 RMK A01 T00110009  RH  098%=      5-min Rain = 0
KVA1 091019Z 21007KT 01/01 A3029 RMK A01 T00120009  RH  098%=      5-min Rain = 0
KVA1 091020Z 21007KT 01/01 A3029 RMK A01 T00120010  RH  098%=      5-min Rain = 0
KVA1 091021Z 21007KT 01/01 A3029 RMK A01 T00130011  RH  099%=      5-min Rain = 0
KVA1 091022Z 21008KT 01/01 A3029 RMK A01 T00140012  RH  098%=      5-min Rain = 0
KVA1 091023Z 21007KT 01/01 A3029 RMK A01 T00140012  RH  098%=      5-min Rain = 0
KVA1 091024Z 21007KT 01/01 A3029 RMK A01 T00140012  RH  098%=      5-min Rain = 0
KVA1 091025Z 21007KT 01/01 A3029 RMK A01 T00140012  RH  098%=      5-min Rain = 0
KVA1 091026Z 21007KT 01/01 A3029 RMK A01 T00140012  RH  098%=      5-min Rain = 0
KVA1 091027Z 21008KT 01/01 A3029 RMK A01 T00140012  RH  098%=      5-min Rain = 0
KVA1 091028Z 22008KT 01/01 A3029 RMK A01 T00140012  RH  098%=      5-min Rain = 0
KVA1 091029Z 21007KT 01/01 A3029 RMK A01 T00140011  RH  098%=      5-min Rain = 0
KVA1 091030Z 21008KT 01/01 A3029 RMK A01 T00140011  RH  098%=      5-min Rain = 0
KVA1 091031Z 21007KT 01/01 A3029 RMK A01 T00140011  RH  098%=      5-min Rain = 0
KVA1 091032Z 21007KT 01/01 A303 RMK A01 T00130011  RH  098%=      5-min Rain = 0
KVA1 091033Z 21008KT 01/01 A303 RMK A01 T00130010  RH  098%=      5-min Rain = 0
KVA1 091034Z 21009KT 01/01 A303 RMK A01 T00130010  RH  098%=      5-min Rain = 0
KVA1 091035Z 21008KT 01/01 A303 RMK A01 T00130010  RH  098%=      5-min Rain = 0
KVA1 091036Z 21007KT 01/01 A303 RMK A01 T00130010  RH  098%=      5-min Rain = 0
KVA1 091037Z 21007KT 01/01 A303 RMK A01 T00130010  RH  098%=      5-min Rain = 0
KVA1 091038Z 21007KT 01/01 A303 RMK A01 T00130009  RH  098%=      5-min Rain = 0
KVA1 091039Z 22007KT 01/01 A303 RMK A01 T00120009  RH  098%=      5-min Rain = 0
KVA1 091040Z 22007KT 01/01 A303 RMK A01 T00120009  RH  098%=      5-min Rain = 0
KVA1 091041Z 22007KT 01/01 A303 RMK A01 T00120009  RH  098%=      5-min Rain = 0
KVA1 091042Z 22007KT 01/01 A303 RMK A01 T00120008  RH  098%=      5-min Rain = 0
KVA1 091043Z 22007KT 01/01 A303 RMK A01 T00110008  RH  098%=      5-min Rain = 0
KVA1 091044Z 22006KT 01/01 A303 RMK A01 T00110008  RH  098%=      5-min Rain = 0
KVA1 091045Z 22006KT 01/01 A303 RMK A01 T00110008  RH  098%=      5-min Rain = 0
KVA1 091046Z 22007KT 01/01 A303 RMK A01 T00110008  RH  098%=      5-min Rain = 0
KVA1 091047Z 22006KT 01/01 A303 RMK A01 T00110007  RH  098%=      5-min Rain = 0
KVA1 091048Z 22005KT 01/01 A303 RMK A01 T00110008  RH  098%=      5-min Rain = 0
KVA1 091049Z 22006KT 01/01 A303 RMK A01 T00110008  RH  098%=      5-min Rain = 0
KVA1 091050Z 22006KT 01/01 A303 RMK A01 T00100007  RH  098%=      5-min Rain = 0
KVA1 091051Z 22006KT 01/01 A303 RMK A01 T00100007  RH  098%=      5-min Rain = 0
KVA1 091052Z 22006KT 01/01 A303 RMK A01 T00100007  RH  098%=      5-min Rain = 0
KVA1 091053Z 22006KT 01/01 A303 RMK A01 T00110007  RH  098%=      5-min Rain = 0
KVA1 091054Z 21005KT 01/01 A303 RMK A01 T00110008  RH  098%=      5-min Rain = 0
KVA1 091055Z 22006KT 01/01 A303 RMK A01 T00100007  RH  098%=      5-min Rain = 0
KVA1 091056Z 22006KT 01/01 A303 RMK A01 T00100007  RH  098%=      5-min Rain = 0
KVA1 091057Z 22006KT 01/01 A303 RMK A01 T00100006  RH  098%=      5-min Rain = 0
KVA1 091058Z 22006KT 01/01 A303 RMK A01 T00090006  RH  098%=      5-min Rain = 0
KVA1 091059Z 22006KT 01/01 A303 RMK A01 T00090006  RH  098%=      5-min Rain = 0
KVA1 091100Z 22007KT 01/01 A303 RMK A01 T00090006  RH  098%=      5-min Rain = 0
KVA1 091101Z 22007KT 01/01 A303 RMK A01 T00090006  RH  098%=      5-min Rain = 0
KVA1 091102Z 22007KT 01/01 A303 RMK A01 T00090006  RH  098%=      5-min Rain = 0
KVA1 091103Z 22007KT 01/01 A303 RMK A01 T00090006  RH  098%=      5-min Rain = 0
KVA1 091104Z 23007KT 01/01 A303 RMK A01 T00090006  RH  098%=      5-min Rain = 0
KVA1 091105Z 23006KT 01/01 A303 RMK A01 T00090006  RH  098%=      5-min Rain = 0
KVA1 091106Z 23006KT 01/01 A303 RMK A01 T00090006  RH  098%=      5-min Rain = 0
KVA1 091107Z 23006KT 01/01 A303 RMK A01 T00090006  RH  098%=      5-min Rain = 0
KVA1 091108Z 23006KT 01/01 A303 RMK A01 T00090006  RH  098%=      5-min Rain = 0
KVA1 091109Z 23006KT 01/01 A303 RMK A01 T00080005  RH  098%=      5-min Rain = 0
KVA1 091110Z 23005KT 01/01 A303 RMK A01 T00080005  RH  098%=      5-min Rain = 0
KVA1 091111Z 24005KT 01/01 A303 RMK A01 T00080005  RH  098%=      5-min Rain = 0
KVA1 091112Z 24005KT 01/01 A303 RMK A01 T00080005  RH  098%=      5-min Rain = 0
KVA1 091113Z 24005KT 01/01 A303 RMK A01 T00080005  RH  098%=      5-min Rain = 0
KVA1 091114Z 23004KT 01/00 A303 RMK A01 T00080004  RH  098%=      5-min Rain = 0
KVA1 091115Z 23005KT 01/00 A303 RMK A01 T00070004  RH  098%=      5-min Rain = 0
KVA1 091116Z 23004KT 01/00 A303 RMK A01 T00070004  RH  098%=      5-min Rain = 0
KVA1 091117Z 25003KT 01/00 A303 RMK A01 T00070004  RH  098%=      5-min Rain = 0
KVA1 091118Z 25004KT 01/00 A303 RMK A01 T00060003  RH  098%=      5-min Rain = 0
KVA1 091119Z 25004KT 01/00 A303 RMK A01 T00060003  RH  098%=      5-min Rain = 0
KVA1 091120Z 25004KT 01/00 A303 RMK A01 T00060003  RH  098%=      5-min Rain = 0
KVA1 091121Z 24004KT 01/00 A303 RMK A01 T00060003  RH  098%=      5-min Rain = 0
KVA1 091122Z 23004KT 01/00 A303 RMK A01 T00060003  RH  098%=      5-min Rain = 0
KVA1 091123Z 22005KT 01/00 A303 RMK A01 T00050002  RH  098%=      5-min Rain = 0
KVA1 091124Z 23005KT 01/00 A303 RMK A01 T00060003  RH  098%=      5-min Rain = 0
KVA1 091125Z 23005KT 01/00 A303 RMK A01 T00060003  RH  098%=      5-min Rain = 0
KVA1 091126Z 23005KT 01/00 A303 RMK A01 T00060004  RH  098%=      5-min Rain = 0
KVA1 091127Z 22005KT 01/00 A303 RMK A01 T00060003  RH  098%=      5-min Rain = 0
KVA1 091128Z 23005KT 01/00 A303 RMK A01 T00060004  RH  098%=      5-min Rain = 0
KVA1 091129Z 23005KT 01/00 A303 RMK A01 T00060003  RH  098%=      5-min Rain = 0
KVA1 091130Z 23005KT 01/00 A303 RMK A01 T00060003  RH  098%=      5-min Rain = 0
KVA1 091131Z 23005KT 01/00 A303 RMK A01 T00060003  RH  098%=      5-min Rain = 0
KVA1 091132Z 24005KT 01/00 A303 RMK A01 T00050002  RH  098%=      5-min Rain = 0
KVA1 091133Z 23005KT 00/00 A303 RMK A01 T00040002  RH  098%=      5-min Rain = 0
KVA1 091134Z 22005KT 00/00 A303 RMK A01 T00040001  RH  098%=      5-min Rain = 0
KVA1 091135Z 23005KT 00/00 A303 RMK A01 T00040001  RH  098%=      5-min Rain = 0
KVA1 091136Z 23005KT 00/00 A303 RMK A01 T00040001  RH  098%=      5-min Rain = 0
KVA1 091137Z 24005KT 00/00 A303 RMK A01 T00040001  RH  098%=      5-min Rain = 0
KVA1 091138Z 24004KT 00/00 A303 RMK A01 T00030000  RH  098%=      5-min Rain = 0
KVA1 091139Z 23004KT 00/00 A303 RMK A01 T000300-0  RH  098%=      5-min Rain = 0
KVA1 091140Z 24004KT 00/00 A303 RMK A01 T000200-0  RH  098%=      5-min Rain = 0
KVA1 091141Z 24004KT 00/M00 A303 RMK A01 T00021001  RH  098%=      5-min Rain = 0
KVA1 091142Z 23005KT 00/M00 A303 RMK A01 T00021001  RH  098%=      5-min Rain = 0
KVA1 091143Z 22005KT 00/M00 A303 RMK A01 T00021001  RH  098%=      5-min Rain = 0
KVA1 091144Z 22005KT 00/M00 A303 RMK A01 T00021001  RH  098%=      5-min Rain = 0
KVA1 091145Z 23004KT 00/M00 A3031 RMK A01 T00021001  RH  098%=      5-min Rain = 0
KVA1 091146Z 25003KT 00/00 A3031 RMK A01 T000200-0  RH  098%=      5-min Rain = 0
KVA1 091147Z 26002KT 00/M00 A3031 RMK A01 T00021001  RH  098%=      5-min Rain = 0
KVA1 091148Z 25002KT 00/M00 A3031 RMK A01 T00021001  RH  098%=      5-min Rain = 0
KVA1 091149Z 25002KT 00/M00 A3031 RMK A01 T00011001  RH  098%=      5-min Rain = 0
KVA1 091150Z 25002KT 00/M00 A3031 RMK A01 T00011001  RH  098%=      5-min Rain = 0
KVA1 091151Z 23003KT 00/M00 A3031 RMK A01 T00011001  RH  098%=      5-min Rain = 0
KVA1 091152Z 23003KT 00/00 A3031 RMK A01 T000200-0  RH  098%=      5-min Rain = 0
KVA1 091153Z 24003KT 00/00 A3031 RMK A01 T000200-0  RH  099%=      5-min Rain = 0
KVA1 091154Z 23003KT 00/00 A3031 RMK A01 T00020000  RH  099%=      5-min Rain = 0
KVA1 091155Z 23004KT 00/00 A3031 RMK A01 T00020000  RH  099%=      5-min Rain = 0
KVA1 091156Z 23004KT 00/00 A3031 RMK A01 T00020000  RH  099%=      5-min Rain = 0
KVA1 091157Z 23004KT 00/00 A3031 RMK A01 T00020000  RH  099%=      5-min Rain = 0
KVA1 091158Z 23004KT 00/00 A3031 RMK A01 T00030000  RH  099%=      5-min Rain = 0
KVA1 091159Z 23005KT 00/00 A3031 RMK A01 T00020000  RH  099%=      5-min Rain = 0
KVA1 091200Z 22005KT 00/00 A3031 RMK A01 T000200-0  RH  098%=      5-min Rain = 0
KVA1 091201Z 23005KT 00/M00 A3031 RMK A01 T00021001  RH  098%=      5-min Rain = 0
KVA1 091202Z 24005KT 00/M00 A3031 RMK A01 T00011001  RH  098%=      5-min Rain = 0
KVA1 091203Z 24004KT 00/M00 A3031 RMK A01 T00011002  RH  098%=      5-min Rain = 0
KVA1 091204Z 24004KT 00/00 A3032 RMK A01 T000000-2  RH  098%=      5-min Rain = 0
KVA1 091205Z 23004KT 00/00 A3032 RMK A01 T000000-2  RH  098%=      5-min Rain = 0
KVA1 091206Z 23004KT 00/00 A3032 RMK A01 T000000-2  RH  098%=      5-min Rain = 0
KVA1 091207Z 22005KT 00/00 A3032 RMK A01 T000000-2  RH  099%=      5-min Rain = 0
KVA1 091208Z 22006KT 00/M00 A3032 RMK A01 T00011001  RH  099%=      5-min Rain = 0
KVA1 091209Z 21005KT 00/M00 A3032 RMK A01 T00011001  RH  099%=      5-min Rain = 0
KVA1 091210Z 21005KT 00/00 A3032 RMK A01 T000200-0  RH  099%=      5-min Rain = 0
KVA1 091211Z 21005KT 00/00 A3032 RMK A01 T000200-0  RH  099%=      5-min Rain = 0
KVA1 091212Z 22003KT 00/00 A3032 RMK A01 T00020000  RH  099%=      5-min Rain = 0
KVA1 091213Z 33001KT 00/00 A3032 RMK A01 T00020000  RH  099%=      5-min Rain = 0
KVA1 091214Z 01002KT 00/00 A3032 RMK A01 T00020000  RH  099%=      5-min Rain = 0
KVA1 091215Z 35002KT 00/00 A3032 RMK A01 T000100-0  RH  099%=      5-min Rain = 0
KVA1 091216Z 01001KT 00/00 A3032 RMK A01 T000200-0  RH  099%=      5-min Rain = 0
KVA1 091217Z 02000KT 00/00 A3032 RMK A01 T000100-0  RH  099%=      5-min Rain = 0
KVA1 091218Z 05001KT 00/00 A3032 RMK A01 T000100-0  RH  099%=      5-min Rain = 0
KVA1 091219Z 06000KT 00/00 A3032 RMK A01 T000100-0  RH  099%=      5-min Rain = 0
KVA1 091220Z 00000KT 00/00 A3032 RMK A01 T000100-0  RH  099%=      5-min Rain = 0
KVA1 091221Z 25000KT 00/00 A3032 RMK A01 T000100-0  RH  099%=      5-min Rain = 0
KVA1 091222Z 25001KT 00/M00 A3032 RMK A01 T00011001  RH  099%=      5-min Rain = 0
KVA1 091223Z 25001KT 00/M00 A3032 RMK A01 T00011001  RH  099%=      5-min Rain = 0
KVA1 091224Z 26001KT 00/M00 A3032 RMK A01 T00011001  RH  099%=      5-min Rain = 0
KVA1 091225Z 24001KT 00/M00 A3032 RMK A01 T00011001  RH  099%=      5-min Rain = 0
KVA1 091226Z 22001KT 00/M00 A3032 RMK A01 T00011001  RH  099%=      5-min Rain = 0
KVA1 091227Z 23000KT 00/00 A3033 RMK A01 T000000-1  RH  099%=      5-min Rain = 0
KVA1 091228Z 00000KT 00/00 A3033 RMK A01 T000000-1  RH  099%=      5-min Rain = 0
KVA1 091229Z 00000KT 00/00 A3033 RMK A01 T00-000-2  RH  099%=      5-min Rain = 0
KVA1 091230Z 00001KT M00/M00 A3033 RMK A01 T10011003  RH  099%=      5-min Rain = 0
KVA1 091231Z 00000KT M00/M00 A3033 RMK A01 T10021004  RH  099%=      5-min Rain = 0
KVA1 091232Z 21000KT M00/M00 A3033 RMK A01 T10021004  RH  099%=      5-min Rain = 0
KVA1 091233Z 21002KT M00/M00 A3032 RMK A01 T10021004  RH  099%=      5-min Rain = 0
KVA1 091234Z 23002KT M00/M00 A3033 RMK A01 T10021003  RH  099%=      5-min Rain = 0
KVA1 091235Z 27002KT M00/M00 A3033 RMK A01 T10011002  RH  099%=      5-min Rain = 0
KVA1 091236Z 27002KT M00/M00 A3033 RMK A01 T10011002  RH  099%=      5-min Rain = 0
KVA1 091237Z 27002KT M00/M00 A3033 RMK A01 T10021004  RH  099%=      5-min Rain = 0
KVA1 091238Z 25002KT M00/M01 A3033 RMK A01 T10031005  RH  099%=      5-min Rain = 0
KVA1 091239Z 24002KT M00/M01 A3033 RMK A01 T10041005  RH  099%=      5-min Rain = 0
KVA1 091240Z 22002KT M00/M01 A3033 RMK A01 T10041005  RH  099%=      5-min Rain = 0
KVA1 091241Z 21002KT M00/M01 A3033 RMK A01 T10041006  RH  099%=      5-min Rain = 0
KVA1 091242Z 21002KT M00/M01 A3033 RMK A01 T10031005  RH  099%=      5-min Rain = 0
KVA1 091243Z 22002KT M00/M00 A3033 RMK A01 T10021004  RH  099%=      5-min Rain = 0
KVA1 091244Z 22002KT M00/M00 A3033 RMK A01 T10011003  RH  099%=      5-min Rain = 0
KVA1 091245Z 22001KT M00/M00 A3033 RMK A01 T10011002  RH  099%=      5-min Rain = 0
KVA1 091246Z 20002KT M00/M00 A3033 RMK A01 T10011002  RH  099%=      5-min Rain = 0
KVA1 091247Z 19003KT M00/M00 A3033 RMK A01 T10011002  RH  099%=      5-min Rain = 0
KVA1 091248Z 19002KT 00/00 A3033 RMK A01 T00-000-1  RH  099%=      5-min Rain = 0
KVA1 091249Z 21002KT 00/00 A3033 RMK A01 T000000-1  RH  099%=      5-min Rain = 0
KVA1 091250Z 21002KT 00/00 A3033 RMK A01 T000000-1  RH  099%=      5-min Rain = 0
KVA1 091251Z 19001KT 00/00 A3033 RMK A01 T000100-0  RH  099%=      5-min Rain = 0
KVA1 091252Z 16001KT 00/M00 A3034 RMK A01 T00011001  RH  099%=      5-min Rain = 0
KVA1 091253Z 16001KT 00/M00 A3034 RMK A01 T00011001  RH  099%=      5-min Rain = 0
KVA1 091254Z 15001KT 00/00 A3034 RMK A01 T000000-1  RH  099%=      5-min Rain = 0
KVA1 091255Z 15002KT 00/00 A3034 RMK A01 T00-000-1  RH  099%=      5-min Rain = 0
KVA1 091256Z 16002KT 00/00 A3033 RMK A01 T00-000-2  RH  099%=      5-min Rain = 0
KVA1 091257Z 18002KT 00/00 A3034 RMK A01 T00-000-2  RH  099%=      5-min Rain = 0
KVA1 091258Z 22002KT 00/00 A3034 RMK A01 T00-000-2  RH  099%=      5-min Rain = 0
KVA1 091259Z 22001KT 00/00 A3034 RMK A01 T00-000-2  RH  099%=      5-min Rain = 0
KVA1 091300Z 21002KT 00/00 A3034 RMK A01 T00-000-1  RH  099%=      5-min Rain = 0
KVA1 091301Z 20002KT 00/00 A3034 RMK A01 T00-000-1  RH  099%=      5-min Rain = 0
KVA1 091302Z 19002KT M00/M00 A3034 RMK A01 T10011002  RH  099%=      5-min Rain = 0
KVA1 091303Z 20003KT M00/M00 A3034 RMK A01 T10011002  RH  099%=      5-min Rain = 0
KVA1 091304Z 21003KT M00/M00 A3034 RMK A01 T10011002  RH  099%=      5-min Rain = 0
KVA1 091305Z 21003KT M00/M00 A3034 RMK A01 T10011002  RH  099%=      5-min Rain = 0
KVA1 091306Z 21003KT M00/M00 A3034 RMK A01 T10011002  RH  099%=      5-min Rain = 0
KVA1 091307Z 20004KT M00/M00 A3034 RMK A01 T10011002  RH  099%=      5-min Rain = 0
KVA1 091308Z 21004KT M00/M00 A3034 RMK A01 T10011002  RH  099%=      5-min Rain = 0
KVA1 091309Z 21004KT M00/M00 A3034 RMK A01 T10011002  RH  099%=      5-min Rain = 0
KVA1 091310Z 19004KT 00/00 A3034 RMK A01 T00-000-1  RH  099%=      5-min Rain = 0
KVA1 091311Z 18004KT 00/00 A3034 RMK A01 T00-000-1  RH  099%=      5-min Rain = 0
KVA1 091312Z 19003KT 00/00 A3034 RMK A01 T00-000-1  RH  099%=      5-min Rain = 0
KVA1 091313Z 21003KT 00/00 A3035 RMK A01 T000000-1  RH  099%=      5-min Rain = 0
KVA1 091314Z 18003KT 00/00 A3034 RMK A01 T00-000-1  RH  099%=      5-min Rain = 0
KVA1 091315Z 17003KT 00/00 A3034 RMK A01 T000100-0  RH  099%=      5-min Rain = 0
KVA1 091316Z 16002KT 00/00 A3034 RMK A01 T000100-0  RH  099%=      5-min Rain = 0
KVA1 091317Z 15000KT 00/00 A3034 RMK A01 T00010000  RH  099%=      5-min Rain = 0
KVA1 091318Z 14002KT 00/00 A3034 RMK A01 T000100-0  RH  099%=      5-min Rain = 0
KVA1 091319Z 17002KT 00/00 A3034 RMK A01 T000100-0  RH  099%=      5-min Rain = 0
KVA1 091320Z 18000KT 00/00 A3034 RMK A01 T000100-0  RH  099%=      5-min Rain = 0
KVA1 091321Z 11001KT 00/00 A3034 RMK A01 T00010000  RH  099%=      5-min Rain = 0
KVA1 091322Z 12001KT 00/00 A3035 RMK A01 T000100-0  RH  099%=      5-min Rain = 0
KVA1 091323Z 12002KT 00/00 A3035 RMK A01 T000100-0  RH  099%=      5-min Rain = 0
KVA1 091324Z 10002KT 00/00 A3035 RMK A01 T000100-0  RH  099%=      5-min Rain = 0
KVA1 091325Z 10001KT 00/00 A3035 RMK A01 T000100-0  RH  099%=      5-min Rain = 0
KVA1 091326Z 12001KT 00/00 A3035 RMK A01 T000100-0  RH  099%=      5-min Rain = 0
KVA1 091327Z 13001KT 00/00 A3035 RMK A01 T000100-0  RH  099%=      5-min Rain = 0
KVA1 091328Z 00000KT 00/00 A3035 RMK A01 T000100-0  RH  099%=      5-min Rain = 0
KVA1 091329Z 13001KT 00/00 A3035 RMK A01 T000000-1  RH  099%=      5-min Rain = 0
KVA1 091330Z 16001KT 00/00 A3035 RMK A01 T000100-0  RH  099%=      5-min Rain = 0
KVA1 091331Z 18001KT 00/00 A3035 RMK A01 T000000-0  RH  099%=      5-min Rain = 0
KVA1 091332Z 17001KT 00/00 A3035 RMK A01 T000000-1  RH  099%=      5-min Rain = 0
KVA1 091333Z 17002KT 00/00 A3035 RMK A01 T000100-0  RH  099%=      5-min Rain = 0
KVA1 091334Z 19002KT 00/00 A3035 RMK A01 T00010000  RH  099%=      5-min Rain = 0
KVA1 091335Z 19003KT 00/00 A3035 RMK A01 T00010000  RH  099%=      5-min Rain = 0
KVA1 091336Z 19003KT 00/00 A3035 RMK A01 T00010001  RH  099%=      5-min Rain = 0
KVA1 091337Z 20003KT 00/00 A3035 RMK A01 T00020001  RH  099%=      5-min Rain = 0
KVA1 091338Z 20004KT 00/00 A3035 RMK A01 T00020001  RH  099%=      5-min Rain = 0
KVA1 091339Z 20004KT 00/00 A3035 RMK A01 T00020001  RH  099%=      5-min Rain = 0
KVA1 091340Z 20004KT 00/00 A3035 RMK A01 T00020001  RH  099%=      5-min Rain = 0
KVA1 091341Z 20004KT 00/00 A3035 RMK A01 T00020001  RH  099%=      5-min Rain = 0
KVA1 091342Z 20004KT 00/00 A3035 RMK A01 T00020001  RH  099%=      5-min Rain = 0
KVA1 091343Z 21004KT 00/00 A3035 RMK A01 T00020002  RH  099%=      5-min Rain = 0
KVA1 091344Z 21005KT 00/00 A3035 RMK A01 T00020002  RH  099%=      5-min Rain = 0
KVA1 091345Z 21005KT 00/00 A3035 RMK A01 T00030002  RH  100%=      5-min Rain = 0
KVA1 091346Z 21005KT 00/00 A3035 RMK A01 T00030002  RH  100%=      5-min Rain = 0
KVA1 091347Z 21006KT 00/00 A3035 RMK A01 T00020002  RH  099%=      5-min Rain = 0
KVA1 091348Z 22006KT 00/00 A3035 RMK A01 T00020002  RH  100%=      5-min Rain = 0
KVA1 091349Z 22006KT 00/00 A3035 RMK A01 T00020002  RH  099%=      5-min Rain = 0
KVA1 091350Z 22006KT 00/00 A3035 RMK A01 T00030002  RH  100%=      5-min Rain = 0
KVA1 091351Z 22006KT 00/00 A3035 RMK A01 T00020002  RH  099%=      5-min Rain = 0
KVA1 091352Z 22005KT 00/00 A3035 RMK A01 T00020002  RH  099%=      5-min Rain = 0
KVA1 091353Z 22005KT 00/00 A3035 RMK A01 T00020002  RH  099%=      5-min Rain = 0
KVA1 091354Z 22005KT 00/00 A3035 RMK A01 T00030002  RH  099%=      5-min Rain = 0
KVA1 091355Z 23005KT 00/00 A3035 RMK A01 T00030002  RH  099%=      5-min Rain = 0
KVA1 091356Z 23005KT 00/00 A3035 RMK A01 T00030002  RH  099%=      5-min Rain = 0
KVA1 091357Z 22005KT 00/00 A3035 RMK A01 T00040003  RH  099%=      5-min Rain = 0
KVA1 091358Z 22006KT 00/00 A3035 RMK A01 T00040003  RH  099%=      5-min Rain = 0
KVA1 091359Z 21006KT 00/00 A3035 RMK A01 T00040003  RH  099%=      5-min Rain = 0
KVA1 091400Z 22006KT 01/00 A3035 RMK A01 T00050004  RH  099%=      5-min Rain = 0
KVA1 091401Z 23006KT 01/00 A3035 RMK A01 T00050004  RH  099%=      5-min Rain = 0
KVA1 091402Z 23006KT 01/00 A3035 RMK A01 T00050004  RH  099%=      5-min Rain = 0
KVA1 091403Z 22006KT 01/00 A3035 RMK A01 T00050004  RH  099%=      5-min Rain = 0
KVA1 091404Z 22006KT 01/00 A3035 RMK A01 T00050004  RH  099%=      5-min Rain = 0
KVA1 091405Z 22007KT 01/00 A3035 RMK A01 T00050004  RH  099%=      5-min Rain = 0
KVA1 091406Z 22006KT 01/00 A3035 RMK A01 T00050004  RH  099%=      5-min Rain = 0
KVA1 091407Z 22007KT 01/00 A3035 RMK A01 T00060004  RH  099%=      5-min Rain = 0
KVA1 091408Z 23006KT 01/01 A3035 RMK A01 T00060005  RH  099%=      5-min Rain = 0
KVA1 091409Z 23006KT 01/01 A3035 RMK A01 T00070005  RH  099%=      5-min Rain = 0
KVA1 091410Z 22007KT 01/01 A3035 RMK A01 T00070006  RH  099%=      5-min Rain = 0
KVA1 091411Z 22008KT 01/01 A3035 RMK A01 T00070006  RH  099%=      5-min Rain = 0
KVA1 091412Z 23007KT 01/01 A3035 RMK A01 T00080007  RH  099%=      5-min Rain = 0
KVA1 091413Z 22006KT 01/01 A3035 RMK A01 T00080007  RH  099%=      5-min Rain = 0
KVA1 091414Z 22005KT 01/01 A3035 RMK A01 T00080007  RH  099%=      5-min Rain = 0
KVA1 091415Z 23004KT 01/01 A3036 RMK A01 T00090007  RH  099%=      5-min Rain = 0
KVA1 091416Z 24004KT 01/01 A3036 RMK A01 T00090008  RH  099%=      5-min Rain = 0
KVA1 091417Z 24004KT 01/01 A3036 RMK A01 T00090008  RH  099%=      5-min Rain = 0
KVA1 091418Z 24003KT 01/01 A3036 RMK A01 T00100008  RH  099%=      5-min Rain = 0
KVA1 091419Z 24004KT 01/01 A3036 RMK A01 T00100009  RH  099%=      5-min Rain = 0
KVA1 091420Z 22004KT 01/01 A3036 RMK A01 T00110010  RH  099%=      5-min Rain = 0
KVA1 091421Z 23005KT 01/01 A3036 RMK A01 T00120010  RH  099%=      5-min Rain = 0
KVA1 091422Z 23005KT 01/01 A3036 RMK A01 T00120011  RH  099%=      5-min Rain = 0
KVA1 091423Z 24004KT 01/01 A3036 RMK A01 T00130012  RH  099%=      5-min Rain = 0
KVA1 091424Z 23004KT 01/01 A3036 RMK A01 T00140013  RH  099%=      5-min Rain = 0
KVA1 091425Z 23004KT 02/01 A3036 RMK A01 T00150014  RH  099%=      5-min Rain = 0
KVA1 091426Z 23005KT 02/02 A3036 RMK A01 T00160015  RH  099%=      5-min Rain = 0
KVA1 091427Z 23004KT 02/02 A3036 RMK A01 T00170016  RH  099%=      5-min Rain = 0
KVA1 091428Z 23004KT 02/02 A3036 RMK A01 T00180017  RH  099%=      5-min Rain = 0
KVA1 091429Z 24005KT 02/02 A3036 RMK A01 T00190017  RH  099%=      5-min Rain = 0
KVA1 091430Z 24006KT 02/02 A3036 RMK A01 T00190018  RH  099%=      5-min Rain = 0
KVA1 091431Z 24005KT 02/02 A3036 RMK A01 T00200019  RH  099%=      5-min Rain = 0
KVA1 091432Z 24005KT 02/02 A3036 RMK A01 T00200019  RH  099%=      5-min Rain = 0
KVA1 091433Z 24006KT 02/02 A3036 RMK A01 T00210019  RH  099%=      5-min Rain = 0
KVA1 091434Z 24006KT 02/02 A3036 RMK A01 T00220020  RH  099%=      5-min Rain = 0
KVA1 091435Z 24006KT 02/02 A3036 RMK A01 T00220021  RH  099%=      5-min Rain = 0
KVA1 091436Z 24007KT 02/02 A3036 RMK A01 T00230021  RH  099%=      5-min Rain = 0
KVA1 091437Z 25007KT 02/02 A3036 RMK A01 T00240022  RH  099%=      5-min Rain = 0
KVA1 091438Z 24008KT 02/02 A3036 RMK A01 T00240022  RH  099%=      5-min Rain = 0
KVA1 091439Z 24008KT 02/02 A3036 RMK A01 T00240022  RH  099%=      5-min Rain = 0
KVA1 091440Z 23009KT 03/02 A3036 RMK A01 T00260023  RH  098%=      5-min Rain = 0
KVA1 091441Z 23008KT 03/02 A3036 RMK A01 T00260024  RH  098%=      5-min Rain = 0
KVA1 091442Z 22009KT 03/02 A3036 RMK A01 T00270024  RH  098%=      5-min Rain = 0
KVA1 091443Z 23008KT 03/02 A3036 RMK A01 T00270024  RH  098%=      5-min Rain = 0
KVA1 091444Z 23007KT 03/03 A3036 RMK A01 T00270025  RH  098%=      5-min Rain = 0
KVA1 091445Z 22007KT 03/02 A3036 RMK A01 T00270024  RH  098%=      5-min Rain = 0
KVA1 091446Z 22007KT 03/02 A3036 RMK A01 T00270024  RH  098%=      5-min Rain = 0
KVA1 091447Z 22005KT 03/03 A3036 RMK A01 T00270025  RH  098%=      5-min Rain = 0
KVA1 091448Z 20004KT 03/03 A3036 RMK A01 T00280025  RH  098%=      5-min Rain = 0
KVA1 091449Z 20003KT 03/03 A3037 RMK A01 T00280025  RH  098%=      5-min Rain = 0
KVA1 091450Z 16003KT 03/03 A3037 RMK A01 T00290026  RH  098%=      5-min Rain = 0
KVA1 091451Z 15003KT 03/03 A3037 RMK A01 T00300027  RH  098%=      5-min Rain = 0
KVA1 091452Z 17005KT 03/03 A3037 RMK A01 T00310027  RH  098%=      5-min Rain = 0
KVA1 091453Z 14004KT 03/03 A3037 RMK A01 T00310027  RH  097%=      5-min Rain = 0
KVA1 091454Z 15004KT 03/03 A3037 RMK A01 T00310027  RH  097%=      5-min Rain = 0
KVA1 091455Z 16005KT 03/03 A3037 RMK A01 T00310026  RH  097%=      5-min Rain = 0
KVA1 091456Z 17006KT 03/03 A3037 RMK A01 T00310025  RH  096%=      5-min Rain = 0
KVA1 091457Z 18007KT 03/02 A3037 RMK A01 T00290022  RH  095%=      5-min Rain = 0
KVA1 091458Z 20007KT 03/02 A3037 RMK A01 T00280020  RH  095%=      5-min Rain = 0
KVA1 091459Z 20008KT 03/02 A3037 RMK A01 T00280019  RH  094%=      5-min Rain = 0
KVA1 091500Z 21008KT 03/02 A3037 RMK A01 T00270019  RH  094%=      5-min Rain = 0
KVA1 091501Z 21009KT 03/02 A3037 RMK A01 T00270019  RH  094%=      5-min Rain = 0
KVA1 091502Z 21010KT 03/02 A3037 RMK A01 T00270018  RH  094%=      5-min Rain = 0
KVA1 091503Z 21010KT 03/02 A3037 RMK A01 T00270018  RH  094%=      5-min Rain = 0
KVA1 091504Z 21010KT 03/02 A3036 RMK A01 T00270017  RH  094%=      5-min Rain = 0
KVA1 091505Z 21010KT 03/02 A3036 RMK A01 T00270018  RH  094%=      5-min Rain = 0
KVA1 091506Z 21010KT 03/02 A3036 RMK A01 T00270018  RH  093%=      5-min Rain = 0
KVA1 091507Z 21010KT 03/02 A3036 RMK A01 T00270017  RH  093%=      5-min Rain = 0
KVA1 091508Z 21010KT 03/02 A3036 RMK A01 T00280019  RH  093%=      5-min Rain = 0
KVA1 091509Z 21009KT 03/02 A3036 RMK A01 T00290019  RH  093%=      5-min Rain = 0
KVA1 091510Z 21008KT 03/02 A3036 RMK A01 T00290019  RH  093%=      5-min Rain = 0
KVA1 091511Z 22011KT 03/02 A3036 RMK A01 T00300020  RH  093%=      5-min Rain = 0
KVA1 091512Z 22011KT 03/02 A3036 RMK A01 T00300020  RH  093%=      5-min Rain = 0
KVA1 091513Z 23012KT 03/02 A3036 RMK A01 T00300019  RH  092%=      5-min Rain = 0
KVA1 091514Z 22012KT 03/02 A3036 RMK A01 T00300018  RH  092%=      5-min Rain = 0
KVA1 091515Z 23009KT 03/02 A3037 RMK A01 T00290017  RH  092%=      5-min Rain = 0
KVA1 091516Z 23009KT 03/02 A3037 RMK A01 T00300018  RH  092%=      5-min Rain = 0
KVA1 091517Z 23009KT 03/02 A3037 RMK A01 T00300019  RH  092%=      5-min Rain = 0
KVA1 091518Z 22007KT 03/02 A3037 RMK A01 T00300018  RH  092%=      5-min Rain = 0
KVA1 091519Z 21008KT 03/02 A3037 RMK A01 T00310019  RH  092%=      5-min Rain = 0
KVA1 091520Z 22008KT 03/02 A3037 RMK A01 T00320020  RH  092%=      5-min Rain = 0
KVA1 091521Z 21007KT 03/02 A3037 RMK A01 T00330021  RH  092%=      5-min Rain = 0
KVA1 091522Z 21008KT 03/02 A3037 RMK A01 T00330021  RH  092%=      5-min Rain = 0
KVA1 091523Z 21009KT 03/02 A3037 RMK A01 T00340021  RH  091%=      5-min Rain = 0
KVA1 091524Z 21007KT 03/02 A3037 RMK A01 T00340021  RH  091%=      5-min Rain = 0
KVA1 091525Z 22006KT 04/02 A3037 RMK A01 T00360023  RH  091%=      5-min Rain = 0
KVA1 091526Z 22007KT 04/03 A3037 RMK A01 T00370025  RH  091%=      5-min Rain = 0
KVA1 091527Z 22007KT 04/02 A3037 RMK A01 T00380024  RH  091%=      5-min Rain = 0
KVA1 091528Z 21008KT 04/02 A3037 RMK A01 T00380024  RH  090%=      5-min Rain = 0
KVA1 091529Z 21009KT 04/02 A3037 RMK A01 T00390023  RH  090%=      5-min Rain = 0
KVA1 091530Z 21010KT 04/02 A3037 RMK A01 T00390023  RH  090%=      5-min Rain = 0
KVA1 091531Z 20010KT 04/02 A3037 RMK A01 T00390023  RH  090%=      5-min Rain = 0
KVA1 091532Z 20008KT 04/02 A3037 RMK A01 T00390024  RH  090%=      5-min Rain = 0
KVA1 091533Z 21008KT 04/03 A3037 RMK A01 T00400026  RH  090%=      5-min Rain = 0
KVA1 091534Z 21009KT 04/03 A3037 RMK A01 T00410027  RH  090%=      5-min Rain = 0
KVA1 091535Z 21008KT 04/03 A3037 RMK A01 T00410026  RH  090%=      5-min Rain = 0
KVA1 091536Z 21008KT 04/03 A3037 RMK A01 T00420026  RH  090%=      5-min Rain = 0
KVA1 091537Z 21007KT 04/03 A3037 RMK A01 T00420027  RH  090%=      5-min Rain = 0
KVA1 091538Z 20007KT 04/03 A3037 RMK A01 T00430028  RH  090%=      5-min Rain = 0
KVA1 091539Z 21007KT 05/03 A3037 RMK A01 T00450029  RH  090%=      5-min Rain = 0
KVA1 091540Z 21006KT 05/03 A3037 RMK A01 T00460030  RH  090%=      5-min Rain = 0
KVA1 091541Z 21008KT 05/03 A3037 RMK A01 T00480032  RH  090%=      5-min Rain = 0
KVA1 091542Z 21008KT 05/03 A3037 RMK A01 T00490031  RH  089%=      5-min Rain = 0
KVA1 091543Z 21009KT 05/03 A3037 RMK A01 T00490032  RH  089%=      5-min Rain = 0
KVA1 091544Z 20008KT 05/03 A3037 RMK A01 T00500032  RH  088%=      5-min Rain = 0
KVA1 091545Z 20008KT 05/03 A3037 RMK A01 T00500032  RH  088%=      5-min Rain = 0
KVA1 091546Z 19008KT 05/03 A3037 RMK A01 T00510033  RH  088%=      5-min Rain = 0
KVA1 091547Z 20008KT 05/03 A3037 RMK A01 T00520034  RH  088%=      5-min Rain = 0
KVA1 091548Z 21007KT 05/03 A3037 RMK A01 T00530034  RH  088%=      5-min Rain = 0
KVA1 091549Z 20008KT 05/04 A3037 RMK A01 T00540035  RH  088%=      5-min Rain = 0
KVA1 091550Z 20009KT 06/04 A3037 RMK A01 T00550036  RH  088%=      5-min Rain = 0
KVA1 091551Z 20007KT 06/04 A3037 RMK A01 T00550035  RH  087%=      5-min Rain = 0
KVA1 091552Z 19008KT 06/04 A3037 RMK A01 T00560036  RH  087%=      5-min Rain = 0
KVA1 091553Z 19007KT 06/04 A3037 RMK A01 T00560037  RH  087%=      5-min Rain = 0
KVA1 091554Z 19006KT 06/04 A3037 RMK A01 T00570037  RH  087%=      5-min Rain = 0
KVA1 091555Z 19006KT 06/04 A3038 RMK A01 T00590038  RH  087%=      5-min Rain = 0
KVA1 091556Z 18006KT 06/04 A3038 RMK A01 T00600038  RH  086%=      5-min Rain = 0
KVA1 091557Z 17006KT 06/04 A3038 RMK A01 T00610038  RH  085%=      5-min Rain = 0
KVA1 091558Z 17007KT 06/04 A3038 RMK A01 T00610037  RH  084%=      5-min Rain = 0
KVA1 091559Z 15005KT 06/04 A3038 RMK A01 T00620036  RH  084%=      5-min Rain = 0
KVA1 091600Z 13005KT 06/04 A3038 RMK A01 T00610036  RH  084%=      5-min Rain = 0
KVA1 091601Z 07005KT 06/04 A3038 RMK A01 T00620036  RH  084%=      5-min Rain = 0
KVA1 091602Z 05005KT 06/03 A3038 RMK A01 T00590029  RH  081%=      5-min Rain = 0
KVA1 091603Z 07004KT 05/03 A3038 RMK A01 T00540028  RH  083%=      5-min Rain = 0
KVA1 091604Z 08002KT 05/03 A3038 RMK A01 T00530030  RH  085%=      5-min Rain = 0
KVA1 091605Z 08002KT 05/03 A3038 RMK A01 T00530031  RH  086%=      5-min Rain = 0
KVA1 091606Z 11003KT 05/03 A3038 RMK A01 T00540033  RH  086%=      5-min Rain = 0
KVA1 091607Z 14002KT 06/03 A3038 RMK A01 T00560034  RH  086%=      5-min Rain = 0
KVA1 091608Z 16002KT 06/04 A3038 RMK A01 T00590036  RH  085%=      5-min Rain = 0
KVA1 091609Z 14003KT 06/04 A3038 RMK A01 T00610036  RH  084%=      5-min Rain = 0
KVA1 091610Z 13003KT 06/04 A3038 RMK A01 T00630035  RH  082%=      5-min Rain = 0
KVA1 091611Z 09005KT 06/04 A3039 RMK A01 T00630036  RH  082%=      5-min Rain = 0
KVA1 091612Z 06007KT 06/03 A3039 RMK A01 T00610031  RH  081%=      5-min Rain = 0
KVA1 091613Z 05008KT 06/03 A3039 RMK A01 T00550028  RH  083%=      5-min Rain = 0
KVA1 091614Z 05008KT 05/03 A3039 RMK A01 T00520030  RH  086%=      5-min Rain = 0
KVA1 091615Z 05007KT 05/03 A3039 RMK A01 T00510030  RH  086%=      5-min Rain = 0
KVA1 091616Z 05006KT 05/03 A3039 RMK A01 T00480029  RH  087%=      5-min Rain = 0
KVA1 091617Z 06006KT 05/03 A3039 RMK A01 T00470029  RH  088%=      5-min Rain = 0
KVA1 091618Z 05007KT 05/03 A3039 RMK A01 T00450028  RH  089%=      5-min Rain = 0
KVA1 091619Z 05005KT 04/03 A3039 RMK A01 T00430027  RH  089%=      5-min Rain = 0
KVA1 091620Z 05006KT 04/03 A3039 RMK A01 T00420028  RH  090%=      5-min Rain = 0
KVA1 091621Z 05006KT 04/03 A3039 RMK A01 T00400026  RH  090%=      5-min Rain = 0
KVA1 091622Z 05006KT 04/03 A3039 RMK A01 T00400027  RH  092%=      5-min Rain = 0
KVA1 091623Z 04005KT 04/03 A3039 RMK A01 T00390028  RH  092%=      5-min Rain = 0
KVA1 091624Z 02005KT 04/03 A3039 RMK A01 T00400028  RH  092%=      5-min Rain = 0
KVA1 091625Z 02005KT 04/03 A3039 RMK A01 T00400026  RH  091%=      5-min Rain = 0
KVA1 091626Z 02005KT 04/02 A3039 RMK A01 T00390024  RH  090%=      5-min Rain = 0
KVA1 091627Z 03004KT 04/03 A3039 RMK A01 T00390025  RH  091%=      5-min Rain = 0
KVA1 091628Z 02005KT 04/03 A3039 RMK A01 T00410028  RH  091%=      5-min Rain = 0
KVA1 091629Z 04006KT 04/03 A3039 RMK A01 T00410027  RH  091%=      5-min Rain = 0
KVA1 091630Z 03006KT 04/03 A3039 RMK A01 T00410026  RH  090%=      5-min Rain = 0
KVA1 091631Z 03005KT 04/03 A3039 RMK A01 T00390025  RH  090%=      5-min Rain = 0
KVA1 091632Z 02005KT 04/02 A3039 RMK A01 T00370022  RH  090%=      5-min Rain = 0
KVA1 091633Z 02005KT 04/02 A3039 RMK A01 T00360022  RH  091%=      5-min Rain = 0
KVA1 091634Z 02005KT 04/02 A3039 RMK A01 T00350023  RH  092%=      5-min Rain = 0
KVA1 091635Z 02006KT 04/02 A3039 RMK A01 T00350024  RH  093%=      5-min Rain = 0
KVA1 091636Z 02005KT 04/02 A3039 RMK A01 T00350024  RH  093%=      5-min Rain = 0
KVA1 091637Z 02004KT 03/02 A3039 RMK A01 T00340024  RH  093%=      5-min Rain = 0
KVA1 091638Z 02006KT 03/03 A3039 RMK A01 T00340025  RH  094%=      5-min Rain = 0
KVA1 091639Z 05005KT 04/03 A3039 RMK A01 T00350026  RH  094%=      5-min Rain = 0
KVA1 091640Z 04004KT 04/03 A3039 RMK A01 T00350026  RH  094%=      5-min Rain = 0
KVA1 091641Z 03005KT 04/03 A3039 RMK A01 T00350027  RH  094%=      5-min Rain = 0
KVA1 091642Z 03004KT 03/02 A3039 RMK A01 T00330024  RH  094%=      5-min Rain = 0
KVA1 091643Z 02005KT 03/03 A3039 RMK A01 T00340025  RH  094%=      5-min Rain = 0
KVA1 091644Z 02006KT 03/02 A3039 RMK A01 T00330024  RH  094%=      5-min Rain = 0
KVA1 091645Z 02004KT 03/02 A3039 RMK A01 T00320024  RH  094%=      5-min Rain = 0
KVA1 091646Z 02005KT 03/03 A3039 RMK A01 T00330026  RH  095%=      5-min Rain = 0
KVA1 091647Z 05004KT 03/03 A3039 RMK A01 T00340027  RH  095%=      5-min Rain = 0
KVA1 091648Z 05005KT 03/03 A3039 RMK A01 T00330025  RH  095%=      5-min Rain = 0
KVA1 091649Z 04004KT 03/02 A3039 RMK A01 T00310023  RH  095%=      5-min Rain = 0
KVA1 091650Z 04004KT 03/02 A3039 RMK A01 T00300022  RH  095%=      5-min Rain = 0
KVA1 091651Z 02004KT 03/02 A3039 RMK A01 T00290022  RH  095%=      5-min Rain = 0
KVA1 091652Z 01004KT 03/02 A3039 RMK A01 T00300023  RH  095%=      5-min Rain = 0
KVA1 091653Z 03005KT 03/02 A3039 RMK A01 T00300024  RH  096%=      5-min Rain = 0
KVA1 091654Z 02004KT 03/03 A3039 RMK A01 T00310025  RH  096%=      5-min Rain = 0
KVA1 091655Z 03004KT 03/03 A3039 RMK A01 T00310026  RH  096%=      5-min Rain = 0
KVA1 091656Z 04005KT 03/03 A3039 RMK A01 T00310026  RH  096%=      5-min Rain = 0
KVA1 091657Z 03005KT 03/03 A3039 RMK A01 T00320026  RH  096%=      5-min Rain = 0
KVA1 091658Z 03004KT 03/03 A3039 RMK A01 T00320027  RH  096%=      5-min Rain = 0
KVA1 091659Z 03005KT 03/03 A3039 RMK A01 T00330027  RH  096%=      5-min Rain = 0
KVA1 091700Z 03006KT 03/03 A3039 RMK A01 T00340028  RH  096%=      5-min Rain = 0
KVA1 091701Z 02005KT 03/03 A3039 RMK A01 T00330028  RH  096%=      5-min Rain = 0
KVA1 091702Z 03004KT 03/03 A3039 RMK A01 T00330027  RH  096%=      5-min Rain = 0
KVA1 091703Z 01004KT 03/03 A3039 RMK A01 T00330028  RH  096%=      5-min Rain = 0
KVA1 091704Z 05004KT 03/03 A3039 RMK A01 T00340028  RH  096%=      5-min Rain = 0
KVA1 091705Z 04005KT 04/03 A3039 RMK A01 T00350030  RH  096%=      5-min Rain = 0
KVA1 091706Z 05004KT 04/03 A3039 RMK A01 T00350029  RH  096%=      5-min Rain = 0
KVA1 091707Z 06005KT 03/03 A3039 RMK A01 T00340029  RH  096%=      5-min Rain = 0
KVA1 091708Z 07005KT 03/03 A3039 RMK A01 T00340028  RH  096%=      5-min Rain = 0
KVA1 091709Z 06005KT 03/03 A3039 RMK A01 T00340028  RH  096%=      5-min Rain = 0
KVA1 091710Z 04005KT 03/03 A3039 RMK A01 T00340028  RH  096%=      5-min Rain = 0
KVA1 091711Z 04005KT 03/03 A3039 RMK A01 T00340028  RH  096%=      5-min Rain = 0
KVA1 091712Z 04005KT 03/03 A3039 RMK A01 T00340029  RH  096%=      5-min Rain = 0
KVA1 091713Z 03004KT 04/03 A3039 RMK A01 T00350030  RH  096%=      5-min Rain = 0
KVA1 091714Z 03004KT 04/03 A3039 RMK A01 T00360030  RH  096%=      5-min Rain = 0
KVA1 091715Z 01003KT 04/03 A3039 RMK A01 T00350028  RH  096%=      5-min Rain = 0
KVA1 091716Z 03003KT 04/03 A3039 RMK A01 T00350029  RH  096%=      5-min Rain = 0
KVA1 091717Z 05005KT 04/03 A3039 RMK A01 T00370031  RH  096%=      5-min Rain = 0
KVA1 091718Z 04005KT 04/03 A3039 RMK A01 T00380031  RH  096%=      5-min Rain = 0
KVA1 091719Z 04004KT 04/03 A3039 RMK A01 T00370030  RH  095%=      5-min Rain = 0
KVA1 091720Z 04005KT 04/03 A3039 RMK A01 T00380031  RH  096%=      5-min Rain = 0
KVA1 091721Z 05005KT 04/03 A3039 RMK A01 T00370030  RH  095%=      5-min Rain = 0
KVA1 091722Z 05006KT 04/03 A3039 RMK A01 T00370030  RH  095%=      5-min Rain = 0
KVA1 091723Z 05004KT 04/03 A3039 RMK A01 T00370029  RH  095%=      5-min Rain = 0
KVA1 091724Z 05003KT 04/03 A3039 RMK A01 T00360029  RH  095%=      5-min Rain = 0
KVA1 091725Z 06003KT 04/03 A3039 RMK A01 T00360029  RH  095%=      5-min Rain = 0
KVA1 091726Z 06004KT 04/03 A3039 RMK A01 T00370029  RH  095%=      5-min Rain = 0
KVA1 091727Z 05004KT 04/03 A3039 RMK A01 T00390032  RH  095%=      5-min Rain = 0
KVA1 091728Z 05004KT 04/03 A3039 RMK A01 T00400033  RH  095%=      5-min Rain = 0
KVA1 091729Z 05005KT 04/03 A3039 RMK A01 T00400033  RH  095%=      5-min Rain = 0
KVA1 091730Z 05004KT 04/03 A3039 RMK A01 T00400032  RH  095%=      5-min Rain = 0
KVA1 091731Z 05004KT 04/03 A3039 RMK A01 T00410034  RH  095%=      5-min Rain = 0
KVA1 091732Z 06004KT 04/03 A3039 RMK A01 T00410033  RH  094%=      5-min Rain = 0
KVA1 091733Z 07003KT 04/03 A3039 RMK A01 T00410032  RH  094%=      5-min Rain = 0
KVA1 091734Z 06003KT 04/03 A3039 RMK A01 T00410032  RH  094%=      5-min Rain = 0
KVA1 091735Z 03004KT 04/03 A3039 RMK A01 T00420033  RH  095%=      5-min Rain = 0
KVA1 091736Z 03003KT 04/04 A3039 RMK A01 T00430035  RH  095%=      5-min Rain = 0
KVA1 091737Z 02002KT 04/03 A3039 RMK A01 T00420033  RH  094%=      5-min Rain = 0
KVA1 091738Z 04002KT 04/03 A3039 RMK A01 T00420033  RH  094%=      5-min Rain = 0
KVA1 091739Z 06003KT 04/03 A3039 RMK A01 T00430034  RH  094%=      5-min Rain = 0
KVA1 091740Z 06003KT 04/04 A3039 RMK A01 T00440035  RH  094%=      5-min Rain = 0
KVA1 091741Z 05004KT 04/03 A3039 RMK A01 T00440034  RH  093%=      5-min Rain = 0
KVA1 091742Z 06002KT 04/03 A3039 RMK A01 T00430032  RH  093%=      5-min Rain = 0
KVA1 091743Z 06003KT 04/03 A3039 RMK A01 T00430033  RH  093%=      5-min Rain = 0
KVA1 091744Z 07003KT 04/03 A3038 RMK A01 T00440034  RH  093%=      5-min Rain = 0
KVA1 091745Z 06004KT 05/04 A3038 RMK A01 T00450036  RH  094%=      5-min Rain = 0
KVA1 091746Z 07004KT 05/04 A3038 RMK A01 T00460036  RH  093%=      5-min Rain = 0
KVA1 091747Z 05004KT 05/04 A3038 RMK A01 T00470036  RH  093%=      5-min Rain = 0
KVA1 091748Z 07004KT 05/03 A3038 RMK A01 T00470034  RH  091%=      5-min Rain = 0
KVA1 091749Z 07004KT 05/03 A3038 RMK A01 T00460033  RH  091%=      5-min Rain = 0
KVA1 091750Z 06004KT 05/03 A3038 RMK A01 T00460034  RH  092%=      5-min Rain = 0
KVA1 091751Z 04003KT 05/03 A3038 RMK A01 T00460034  RH  092%=      5-min Rain = 0
KVA1 091752Z 07003KT 05/04 A3038 RMK A01 T00470036  RH  092%=      5-min Rain = 0
KVA1 091753Z 08002KT 05/04 A3038 RMK A01 T00490038  RH  092%=      5-min Rain = 0
KVA1 091754Z 04003KT 05/04 A3038 RMK A01 T00500037  RH  091%=      5-min Rain = 0
KVA1 091755Z 03003KT 05/04 A3038 RMK A01 T00510036  RH  090%=      5-min Rain = 0
KVA1 091756Z 05002KT 05/04 A3038 RMK A01 T00510037  RH  091%=      5-min Rain = 0
KVA1 091757Z 04003KT 05/04 A3038 RMK A01 T00530040  RH  091%=      5-min Rain = 0
KVA1 091758Z 02002KT 06/04 A3038 RMK A01 T00550039  RH  090%=      5-min Rain = 0
KVA1 091759Z 03003KT 06/04 A3038 RMK A01 T00560040  RH  089%=      5-min Rain = 0
KVA1 091800Z 02003KT 06/04 A3038 RMK A01 T00570041  RH  089%=      5-min Rain = 0
KVA1 091801Z 01002KT 06/04 A3038 RMK A01 T00580039  RH  088%=      5-min Rain = 0
KVA1 091802Z 03003KT 06/04 A3038 RMK A01 T00590041  RH  088%=      5-min Rain = 0
KVA1 091803Z 02002KT 06/04 A3038 RMK A01 T00600041  RH  088%=      5-min Rain = 0
KVA1 091804Z 01003KT 06/04 A3037 RMK A01 T00620043  RH  088%=      5-min Rain = 0
KVA1 091805Z 03004KT 06/04 A3037 RMK A01 T00630043  RH  087%=      5-min Rain = 0
KVA1 091806Z 02004KT 06/04 A3037 RMK A01 T00640042  RH  086%=      5-min Rain = 0
KVA1 091807Z 04005KT 07/04 A3037 RMK A01 T00650044  RH  086%=      5-min Rain = 0
KVA1 091808Z 03005KT 07/04 A3037 RMK A01 T00660042  RH  085%=      5-min Rain = 0
KVA1 091809Z 02005KT 07/04 A3037 RMK A01 T00660043  RH  085%=      5-min Rain = 0
KVA1 091810Z 04005KT 07/04 A3037 RMK A01 T00680044  RH  085%=      5-min Rain = 0
KVA1 091811Z 04005KT 07/04 A3037 RMK A01 T00690043  RH  084%=      5-min Rain = 0
KVA1 091812Z 04004KT 07/04 A3037 RMK A01 T00690043  RH  084%=      5-min Rain = 0
KVA1 091813Z 03004KT 07/04 A3037 RMK A01 T00690043  RH  084%=      5-min Rain = 0
KVA1 091814Z 04004KT 07/04 A3037 RMK A01 T00690044  RH  084%=      5-min Rain = 0
KVA1 091815Z 02005KT 07/04 A3037 RMK A01 T00700044  RH  084%=      5-min Rain = 0
KVA1 091816Z 03003KT 07/04 A3037 RMK A01 T00700044  RH  083%=      5-min Rain = 0
KVA1 091817Z 03003KT 07/04 A3037 RMK A01 T00700043  RH  083%=      5-min Rain = 0
KVA1 091818Z 02003KT 07/04 A3037 RMK A01 T00700044  RH  083%=      5-min Rain = 0
KVA1 091819Z 05003KT 07/05 A3037 RMK A01 T00710047  RH  085%=      5-min Rain = 0
KVA1 091820Z 03003KT 07/05 A3037 RMK A01 T00720046  RH  083%=      5-min Rain = 0
KVA1 091821Z 04003KT 07/04 A3036 RMK A01 T00730044  RH  082%=      5-min Rain = 0
KVA1 091822Z 04003KT 07/04 A3036 RMK A01 T00720044  RH  083%=      5-min Rain = 0
KVA1 091823Z 03003KT 07/05 A3036 RMK A01 T00720045  RH  083%=      5-min Rain = 0
KVA1 091824Z 01004KT 07/05 A3036 RMK A01 T00740049  RH  084%=      5-min Rain = 0
KVA1 091825Z 02005KT 08/05 A3036 RMK A01 T00760049  RH  083%=      5-min Rain = 0
KVA1 091826Z 01005KT 08/05 A3036 RMK A01 T00760046  RH  081%=      5-min Rain = 0
KVA1 091827Z 02004KT 08/05 A3036 RMK A01 T00750045  RH  081%=      5-min Rain = 0
KVA1 091828Z 03004KT 07/05 A3036 RMK A01 T00740046  RH  082%=      5-min Rain = 0
KVA1 091829Z 03004KT 08/05 A3036 RMK A01 T00750047  RH  082%=      5-min Rain = 0
KVA1 091830Z 04005KT 08/05 A3036 RMK A01 T00770047  RH  081%=      5-min Rain = 0
KVA1 091831Z 04005KT 08/05 A3036 RMK A01 T00780049  RH  082%=      5-min Rain = 0
KVA1 091832Z 03005KT 08/05 A3036 RMK A01 T00780048  RH  081%=      5-min Rain = 0
KVA1 091833Z 02005KT 08/05 A3036 RMK A01 T00780049  RH  082%=      5-min Rain = 0
KVA1 091834Z 01005KT 08/05 A3036 RMK A01 T00790051  RH  082%=      5-min Rain = 0
KVA1 091835Z 01006KT 08/05 A3036 RMK A01 T00800050  RH  082%=      5-min Rain = 0
KVA1 091836Z 02005KT 08/05 A3036 RMK A01 T00810052  RH  082%=      5-min Rain = 0
KVA1 091837Z 01004KT 08/05 A3036 RMK A01 T00820053  RH  082%=      5-min Rain = 0
KVA1 091838Z 05004KT 08/05 A3036 RMK A01 T00830052  RH  081%=      5-min Rain = 0
KVA1 091839Z 03005KT 08/06 A3036 RMK A01 T00840055  RH  082%=      5-min Rain = 0
KVA1 091840Z 05005KT 09/05 A3036 RMK A01 T00860054  RH  081%=      5-min Rain = 0
KVA1 091841Z 04005KT 09/05 A3035 RMK A01 T00860052  RH  079%=      5-min Rain = 0
KVA1 091842Z 03006KT 09/05 A3035 RMK A01 T00850053  RH  080%=      5-min Rain = 0
KVA1 091843Z 03005KT 09/06 A3035 RMK A01 T00860055  RH  081%=      5-min Rain = 0
KVA1 091844Z 04005KT 09/06 A3035 RMK A01 T00860055  RH  081%=      5-min Rain = 0
KVA1 091845Z 03005KT 09/06 A3035 RMK A01 T00880055  RH  080%=      5-min Rain = 0
KVA1 091846Z 03006KT 09/05 A3035 RMK A01 T00880054  RH  079%=      5-min Rain = 0
KVA1 091847Z 04006KT 09/05 A3035 RMK A01 T00880052  RH  078%=      5-min Rain = 0
KVA1 091848Z 03005KT 09/05 A3035 RMK A01 T00860052  RH  079%=      5-min Rain = 0
KVA1 091849Z 01005KT 09/05 A3035 RMK A01 T00860054  RH  081%=      5-min Rain = 0
KVA1 091850Z 04005KT 09/06 A3035 RMK A01 T00890058  RH  081%=      5-min Rain = 0
KVA1 091851Z 05006KT 09/06 A3035 RMK A01 T00910057  RH  079%=      5-min Rain = 0
KVA1 091852Z 04005KT 09/06 A3035 RMK A01 T00920055  RH  078%=      5-min Rain = 0
KVA1 091853Z 03004KT 09/05 A3035 RMK A01 T00920053  RH  077%=      5-min Rain = 0
KVA1 091854Z 05005KT 09/06 A3035 RMK A01 T00930057  RH  078%=      5-min Rain = 0
KVA1 091855Z 04004KT 09/06 A3035 RMK A01 T00940056  RH  077%=      5-min Rain = 0
KVA1 091856Z 05005KT 10/06 A3035 RMK A01 T00950056  RH  077%=      5-min Rain = 0
KVA1 091857Z 03005KT 10/06 A3035 RMK A01 T00950056  RH  076%=      5-min Rain = 0
KVA1 091858Z 04004KT 10/06 A3035 RMK A01 T00960056  RH  076%=      5-min Rain = 0
KVA1 091859Z 05005KT 10/06 A3035 RMK A01 T00970056  RH  076%=      5-min Rain = 0
KVA1 091900Z 05005KT 10/06 A3034 RMK A01 T00960056  RH  076%=      5-min Rain = 0
KVA1 091901Z 05006KT 10/06 A3034 RMK A01 T00960057  RH  077%=      5-min Rain = 0
KVA1 091902Z 06005KT 10/06 A3034 RMK A01 T00970056  RH  076%=      5-min Rain = 0
KVA1 091903Z 07004KT 10/06 A3034 RMK A01 T00970056  RH  076%=      5-min Rain = 0
KVA1 091904Z 05005KT 10/06 A3034 RMK A01 T00980055  RH  075%=      5-min Rain = 0
KVA1 091905Z 05006KT 10/06 A3034 RMK A01 T00970055  RH  075%=      5-min Rain = 0
KVA1 091906Z 05005KT 10/06 A3034 RMK A01 T00960057  RH  076%=      5-min Rain = 0
KVA1 091907Z 07005KT 10/06 A3034 RMK A01 T00960057  RH  076%=      5-min Rain = 0
KVA1 091908Z 06007KT 10/06 A3034 RMK A01 T00980057  RH  075%=      5-min Rain = 0
KVA1 091909Z 06006KT 10/06 A3034 RMK A01 T00990056  RH  074%=      5-min Rain = 0
KVA1 091910Z 05005KT 10/05 A3034 RMK A01 T00980054  RH  074%=      5-min Rain = 0
KVA1 091911Z 04006KT 10/06 A3034 RMK A01 T00980057  RH  076%=      5-min Rain = 0
KVA1 091912Z 04007KT 10/06 A3034 RMK A01 T00990057  RH  075%=      5-min Rain = 0
KVA1 091913Z 04007KT 10/06 A3034 RMK A01 T00990057  RH  075%=      5-min Rain = 0
KVA1 091914Z 04007KT 10/06 A3034 RMK A01 T00990058  RH  075%=      5-min Rain = 0
KVA1 091915Z 04007KT 10/06 A3034 RMK A01 T01000057  RH  075%=      5-min Rain = 0
KVA1 091916Z 02007KT 10/06 A3034 RMK A01 T01000059  RH  076%=      5-min Rain = 0
KVA1 091917Z 02007KT 10/06 A3034 RMK A01 T01000058  RH  075%=      5-min Rain = 0
KVA1 091918Z 03005KT 10/06 A3034 RMK A01 T01000056  RH  074%=      5-min Rain = 0
KVA1 091919Z 04006KT 10/06 A3034 RMK A01 T00990058  RH  075%=      5-min Rain = 0
KVA1 091920Z 03006KT 10/06 A3034 RMK A01 T01000059  RH  076%=      5-min Rain = 0
KVA1 091921Z 03006KT 10/06 A3034 RMK A01 T01020060  RH  075%=      5-min Rain = 0
KVA1 091922Z 04006KT 10/06 A3034 RMK A01 T01030060  RH  075%=      5-min Rain = 0
KVA1 091923Z 05005KT 10/06 A3034 RMK A01 T01040061  RH  074%=      5-min Rain = 0
KVA1 091924Z 04007KT 11/06 A3034 RMK A01 T01060062  RH  074%=      5-min Rain = 0
KVA1 091925Z 03005KT 11/06 A3034 RMK A01 T01070062  RH  074%=      5-min Rain = 0
KVA1 091926Z 04005KT 11/06 A3034 RMK A01 T01070061  RH  073%=      5-min Rain = 0
KVA1 091927Z 05008KT 11/06 A3034 RMK A01 T01080061  RH  073%=      5-min Rain = 0
KVA1 091928Z 05006KT 11/06 A3033 RMK A01 T01060059  RH  073%=      5-min Rain = 0
KVA1 091929Z 04005KT 11/06 A3033 RMK A01 T01050058  RH  073%=      5-min Rain = 0
KVA1 091930Z 02006KT 11/06 A3033 RMK A01 T01050060  RH  074%=      5-min Rain = 0
KVA1 091931Z 02005KT 11/06 A3033 RMK A01 T01050059  RH  073%=      5-min Rain = 0
KVA1 091932Z 03005KT 11/06 A3033 RMK A01 T01050060  RH  073%=      5-min Rain = 0
KVA1 091933Z 04005KT 11/06 A3033 RMK A01 T01060061  RH  073%=      5-min Rain = 0
KVA1 091934Z 03005KT 11/06 A3033 RMK A01 T01070061  RH  073%=      5-min Rain = 0
KVA1 091935Z 02005KT 11/06 A3033 RMK A01 T01070061  RH  073%=      5-min Rain = 0
KVA1 091936Z 05007KT 11/06 A3033 RMK A01 T01080061  RH  073%=      5-min Rain = 0
KVA1 091937Z 07006KT 11/06 A3033 RMK A01 T01070060  RH  072%=      5-min Rain = 0
KVA1 091938Z 05006KT 11/06 A3033 RMK A01 T01070058  RH  072%=      5-min Rain = 0
KVA1 091939Z 06006KT 11/06 A3033 RMK A01 T01060059  RH  073%=      5-min Rain = 0
KVA1 091940Z 06004KT 11/06 A3033 RMK A01 T01060060  RH  073%=      5-min Rain = 0
KVA1 091941Z 04005KT 11/06 A3033 RMK A01 T01070061  RH  073%=      5-min Rain = 0
KVA1 091942Z 05004KT 11/07 A3033 RMK A01 T01100066  RH  074%=      5-min Rain = 0
KVA1 091943Z 03004KT 11/06 A3033 RMK A01 T01120064  RH  072%=      5-min Rain = 0
KVA1 091944Z 04004KT 11/06 A3033 RMK A01 T01130063  RH  071%=      5-min Rain = 0
KVA1 091945Z 04004KT 11/07 A3033 RMK A01 T01130065  RH  072%=      5-min Rain = 0
KVA1 091946Z 03006KT 11/06 A3033 RMK A01 T01130063  RH  071%=      5-min Rain = 0
KVA1 091947Z 03005KT 11/06 A3033 RMK A01 T01120061  RH  071%=      5-min Rain = 0
KVA1 091948Z 04007KT 11/06 A3032 RMK A01 T01100064  RH  073%=      5-min Rain = 0
KVA1 091949Z 05007KT 11/06 A3032 RMK A01 T01100061  RH  072%=      5-min Rain = 0
KVA1 091950Z 06003KT 11/06 A3032 RMK A01 T01080059  RH  072%=      5-min Rain = 0
KVA1 091951Z 02004KT 11/06 A3032 RMK A01 T01070062  RH  074%=      5-min Rain = 0
KVA1 091952Z 04006KT 11/07 A3032 RMK A01 T01090065  RH  074%=      5-min Rain = 0
KVA1 091953Z 05006KT 11/06 A3032 RMK A01 T01100062  RH  072%=      5-min Rain = 0
KVA1 091954Z 05004KT 11/06 A3032 RMK A01 T01100061  RH  072%=      5-min Rain = 0
KVA1 091955Z 03005KT 11/06 A3032 RMK A01 T01090063  RH  074%=      5-min Rain = 0
KVA1 091956Z 03006KT 11/07 A3032 RMK A01 T01100065  RH  074%=      5-min Rain = 0
KVA1 091957Z 05006KT 11/07 A3032 RMK A01 T01130065  RH  072%=      5-min Rain = 0
KVA1 091958Z 08004KT 11/06 A3032 RMK A01 T01130061  RH  070%=      5-min Rain = 0
KVA1 091959Z 02003KT 11/06 A3032 RMK A01 T01100060  RH  071%=      5-min Rain = 0
KVA1 092000Z 02005KT 11/06 A3032 RMK A01 T01100062  RH  072%=      5-min Rain = 0
KVA1 092001Z 03005KT 11/06 A3032 RMK A01 T01100061  RH  072%=      5-min Rain = 0
KVA1 092002Z 04005KT 11/06 A3032 RMK A01 T01100062  RH  072%=      5-min Rain = 0
KVA1 092003Z 03003KT 11/06 A3032 RMK A01 T01110062  RH  072%=      5-min Rain = 0
KVA1 092004Z 05005KT 11/06 A3032 RMK A01 T01110064  RH  073%=      5-min Rain = 0
KVA1 092005Z 04005KT 11/06 A3032 RMK A01 T01130064  RH  072%=      5-min Rain = 0
KVA1 092006Z 04005KT 11/06 A3032 RMK A01 T01130064  RH  072%=      5-min Rain = 0
KVA1 092007Z 05004KT 11/07 A3032 RMK A01 T01140067  RH  072%=      5-min Rain = 0
KVA1 092008Z 05005KT 12/06 A3031 RMK A01 T01150064  RH  071%=      5-min Rain = 0
KVA1 092009Z 01004KT 12/07 A3031 RMK A01 T01150065  RH  071%=      5-min Rain = 0
KVA1 092010Z 03005KT 12/06 A3031 RMK A01 T01150064  RH  071%=      5-min Rain = 0
KVA1 092011Z 05004KT 12/06 A3031 RMK A01 T01150062  RH  070%=      5-min Rain = 0
KVA1 092012Z 04004KT 11/06 A3031 RMK A01 T01140060  RH  069%=      5-min Rain = 0
KVA1 092013Z 02005KT 11/06 A3031 RMK A01 T01130063  RH  071%=      5-min Rain = 0
KVA1 092014Z 05004KT 11/06 A3031 RMK A01 T01140063  RH  071%=      5-min Rain = 0
KVA1 092015Z 05005KT 12/06 A3031 RMK A01 T01150062  RH  070%=      5-min Rain = 0
KVA1 092016Z 04005KT 12/06 A3031 RMK A01 T01160062  RH  070%=      5-min Rain = 0
KVA1 092017Z 03003KT 12/06 A3031 RMK A01 T01150061  RH  069%=      5-min Rain = 0
KVA1 092018Z 06004KT 12/06 A3031 RMK A01 T01160064  RH  070%=      5-min Rain = 0
KVA1 092019Z 05003KT 12/06 A3031 RMK A01 T01180063  RH  069%=      5-min Rain = 0
KVA1 092020Z 03004KT 12/06 A3031 RMK A01 T01180064  RH  069%=      5-min Rain = 0
KVA1 092021Z 02005KT 12/07 A3031 RMK A01 T01200066  RH  070%=      5-min Rain = 0
KVA1 092022Z 04005KT 12/06 A3031 RMK A01 T01200062  RH  068%=      5-min Rain = 0
KVA1 092023Z 06003KT 12/06 A3031 RMK A01 T01200061  RH  067%=      5-min Rain = 0
KVA1 092024Z 01003KT 12/06 A3031 RMK A01 T01180060  RH  067%=      5-min Rain = 0
KVA1 092025Z 03003KT 12/06 A3031 RMK A01 T01190061  RH  068%=      5-min Rain = 0
KVA1 092026Z 04004KT 12/06 A3031 RMK A01 T01190063  RH  068%=      5-min Rain = 0
KVA1 092027Z 04005KT 12/06 A3031 RMK A01 T01210062  RH  067%=      5-min Rain = 0
KVA1 092028Z 03004KT 12/06 A3031 RMK A01 T01210062  RH  067%=      5-min Rain = 0
KVA1 092029Z 01004KT 12/06 A3031 RMK A01 T01210062  RH  067%=      5-min Rain = 0
KVA1 092030Z 02005KT 12/06 A3031 RMK A01 T01210062  RH  067%=      5-min Rain = 0
KVA1 092031Z 04004KT 12/06 A3031 RMK A01 T01220064  RH  067%=      5-min Rain = 0
KVA1 092032Z 07004KT 12/06 A3031 RMK A01 T01240062  RH  066%=      5-min Rain = 0
KVA1 092033Z 08004KT 12/06 A3031 RMK A01 T01240061  RH  065%=      5-min Rain = 0
KVA1 092034Z 08004KT 12/06 A3031 RMK A01 T01240059  RH  065%=      5-min Rain = 0
KVA1 092035Z 04005KT 12/06 A3031 RMK A01 T01230059  RH  065%=      5-min Rain = 0
KVA1 092036Z 05005KT 12/06 A3031 RMK A01 T01230059  RH  065%=      5-min Rain = 0
KVA1 092037Z 03005KT 12/06 A3031 RMK A01 T01230059  RH  065%=      5-min Rain = 0
KVA1 092038Z 02005KT 12/06 A3031 RMK A01 T01230057  RH  064%=      5-min Rain = 0
KVA1 092039Z 01003KT 12/06 A3031 RMK A01 T01220058  RH  065%=      5-min Rain = 0
KVA1 092040Z 02004KT 12/06 A3031 RMK A01 T01230059  RH  065%=      5-min Rain = 0
KVA1 092041Z 02005KT 12/06 A303 RMK A01 T01230058  RH  065%=      5-min Rain = 0
KVA1 092042Z 02004KT 12/06 A303 RMK A01 T01220057  RH  064%=      5-min Rain = 0
KVA1 092043Z 01002KT 12/06 A303 RMK A01 T01230060  RH  065%=      5-min Rain = 0
KVA1 092044Z 08002KT 12/06 A303 RMK A01 T01240063  RH  066%=      5-min Rain = 0
KVA1 092045Z 07004KT 13/06 A303 RMK A01 T01260060  RH  064%=      5-min Rain = 0
KVA1 092046Z 05004KT 13/06 A303 RMK A01 T01260059  RH  064%=      5-min Rain = 0
KVA1 092047Z 04003KT 13/06 A303 RMK A01 T01270062  RH  064%=      5-min Rain = 0
KVA1 092048Z 01003KT 13/06 A303 RMK A01 T01270059  RH  063%=      5-min Rain = 0
KVA1 092049Z 36003KT 13/06 A303 RMK A01 T01260059  RH  063%=      5-min Rain = 0
KVA1 092050Z 00004KT 13/06 A303 RMK A01 T01250058  RH  064%=      5-min Rain = 0
KVA1 092051Z 36004KT 13/06 A303 RMK A01 T01260058  RH  063%=      5-min Rain = 0
KVA1 092052Z 01004KT 13/06 A303 RMK A01 T01250058  RH  064%=      5-min Rain = 0
KVA1 092053Z 02003KT 13/06 A303 RMK A01 T01250058  RH  064%=      5-min Rain = 0
KVA1 092054Z 05004KT 13/06 A303 RMK A01 T01250058  RH  064%=      5-min Rain = 0
KVA1 092055Z 04005KT 13/06 A303 RMK A01 T01260057  RH  063%=      5-min Rain = 0
KVA1 092056Z 03003KT 13/06 A303 RMK A01 T01250057  RH  063%=      5-min Rain = 0
KVA1 092057Z 07004KT 13/06 A303 RMK A01 T01250058  RH  063%=      5-min Rain = 0
KVA1 092058Z 08003KT 13/06 A303 RMK A01 T01260057  RH  063%=      5-min Rain = 0
KVA1 092059Z 06001KT 13/06 A303 RMK A01 T01260058  RH  063%=      5-min Rain = 0
KVA1 092100Z 02003KT 13/06 A303 RMK A01 T01270058  RH  063%=      5-min Rain = 0
KVA1 092101Z 05005KT 13/06 A303 RMK A01 T01280058  RH  063%=      5-min Rain = 0
KVA1 092102Z 05004KT 13/06 A303 RMK A01 T01280057  RH  062%=      5-min Rain = 0
KVA1 092103Z 00004KT 13/06 A303 RMK A01 T01270060  RH  063%=      5-min Rain = 0
KVA1 092104Z 00002KT 13/06 A303 RMK A01 T01270058  RH  063%=      5-min Rain = 0
KVA1 092105Z 02004KT 13/06 A303 RMK A01 T01280059  RH  063%=      5-min Rain = 0
KVA1 092106Z 03004KT 13/06 A303 RMK A01 T01270058  RH  063%=      5-min Rain = 0
KVA1 092107Z 04003KT 13/06 A303 RMK A01 T01280060  RH  063%=      5-min Rain = 0
KVA1 092108Z 07003KT 13/06 A303 RMK A01 T01290057  RH  062%=      5-min Rain = 0
KVA1 092109Z 08004KT 13/06 A303 RMK A01 T01280057  RH  062%=      5-min Rain = 0
KVA1 092110Z 04005KT 13/06 A303 RMK A01 T01280057  RH  062%=      5-min Rain = 0
KVA1 092111Z 04005KT 13/06 A303 RMK A01 T01290059  RH  062%=      5-min Rain = 0
KVA1 092112Z 02005KT 13/06 A303 RMK A01 T01300057  RH  061%=      5-min Rain = 0
KVA1 092113Z 02006KT 13/06 A303 RMK A01 T01300057  RH  061%=      5-min Rain = 0
KVA1 092114Z 03006KT 13/06 A303 RMK A01 T01280057  RH  062%=      5-min Rain = 0
KVA1 092115Z 02003KT 13/06 A303 RMK A01 T01270057  RH  062%=      5-min Rain = 0
KVA1 092116Z 01004KT 13/06 A303 RMK A01 T01270057  RH  063%=      5-min Rain = 0
KVA1 092117Z 01004KT 13/06 A303 RMK A01 T01270059  RH  063%=      5-min Rain = 0
KVA1 092118Z 03004KT 13/06 A303 RMK A01 T01280058  RH  062%=      5-min Rain = 0
KVA1 092119Z 02004KT 13/06 A303 RMK A01 T01280058  RH  062%=      5-min Rain = 0
KVA1 092120Z 04004KT 13/06 A303 RMK A01 T01290058  RH  062%=      5-min Rain = 0
KVA1 092121Z 05004KT 13/06 A303 RMK A01 T01290056  RH  061%=      5-min Rain = 0
KVA1 092122Z 06004KT 13/06 A303 RMK A01 T01280056  RH  062%=      5-min Rain = 0
KVA1 092123Z 07005KT 13/06 A303 RMK A01 T01280057  RH  062%=      5-min Rain = 0
KVA1 092124Z 08004KT 13/06 A303 RMK A01 T01290056  RH  061%=      5-min Rain = 0
KVA1 092125Z 10004KT 13/06 A303 RMK A01 T01290057  RH  062%=      5-min Rain = 0
KVA1 092126Z 06005KT 13/06 A303 RMK A01 T01280058  RH  062%=      5-min Rain = 0
KVA1 092127Z 03004KT 13/06 A303 RMK A01 T01300059  RH  062%=      5-min Rain = 0
KVA1 092128Z 08004KT 13/06 A303 RMK A01 T01300057  RH  061%=      5-min Rain = 0
KVA1 092129Z 12003KT 13/06 A303 RMK A01 T01300057  RH  061%=      5-min Rain = 0
KVA1 092130Z 12001KT 13/06 A303 RMK A01 T01300058  RH  061%=      5-min Rain = 0
KVA1 092131Z 03003KT 13/06 A303 RMK A01 T01310059  RH  061%=      5-min Rain = 0
KVA1 092132Z 04005KT 13/06 A303 RMK A01 T01320057  RH  061%=      5-min Rain = 0
KVA1 092133Z 04005KT 13/06 A303 RMK A01 T01320058  RH  061%=      5-min Rain = 0
KVA1 092134Z 03006KT 13/06 A3029 RMK A01 T01330059  RH  061%=      5-min Rain = 0
KVA1 092135Z 03006KT 13/06 A3029 RMK A01 T01330060  RH  061%=      5-min Rain = 0
KVA1 092136Z 04004KT 13/06 A3029 RMK A01 T01310057  RH  060%=      5-min Rain = 0
KVA1 092137Z 01003KT 13/06 A3029 RMK A01 T01300057  RH  061%=      5-min Rain = 0
KVA1 092138Z 02003KT 13/06 A3029 RMK A01 T01290059  RH  062%=      5-min Rain = 0
KVA1 092139Z 03005KT 13/06 A3029 RMK A01 T01300058  RH  062%=      5-min Rain = 0
KVA1 092140Z 01003KT 13/06 A3029 RMK A01 T01300057  RH  061%=      5-min Rain = 0
KVA1 092141Z 35004KT 13/06 A3029 RMK A01 T01300058  RH  061%=      5-min Rain = 0
KVA1 092142Z 35004KT 13/06 A3029 RMK A01 T01290058  RH  062%=      5-min Rain = 0
KVA1 092143Z 35004KT 13/06 A3029 RMK A01 T01300057  RH  061%=      5-min Rain = 0
KVA1 092144Z 01005KT 13/06 A3029 RMK A01 T01290057  RH  062%=      5-min Rain = 0
KVA1 092145Z 00004KT 13/06 A3029 RMK A01 T01290057  RH  061%=      5-min Rain = 0
KVA1 092146Z 35004KT 13/06 A3029 RMK A01 T01290058  RH  062%=      5-min Rain = 0
KVA1 092147Z 02004KT 13/06 A3029 RMK A01 T01300056  RH  061%=      5-min Rain = 0
KVA1 092148Z 01004KT 13/06 A3029 RMK A01 T01290056  RH  061%=      5-min Rain = 0
KVA1 092149Z 01004KT 13/06 A3029 RMK A01 T01290056  RH  061%=      5-min Rain = 0
KVA1 092150Z 02004KT 13/06 A3029 RMK A01 T01290055  RH  061%=      5-min Rain = 0
KVA1 092151Z 03005KT 13/06 A3029 RMK A01 T01290056  RH  061%=      5-min Rain = 0
KVA1 092152Z 04006KT 13/06 A3029 RMK A01 T01290058  RH  062%=      5-min Rain = 0
KVA1 092153Z 04005KT 13/06 A3029 RMK A01 T01300058  RH  062%=      5-min Rain = 0
KVA1 092154Z 02005KT 13/06 A3029 RMK A01 T01310058  RH  061%=      5-min Rain = 0
KVA1 092155Z 03004KT 13/06 A3029 RMK A01 T01320058  RH  061%=      5-min Rain = 0
KVA1 092156Z 03004KT 13/06 A3029 RMK A01 T01320057  RH  060%=      5-min Rain = 0
KVA1 092157Z 01005KT 13/06 A3029 RMK A01 T01320058  RH  061%=      5-min Rain = 0
KVA1 092158Z 00003KT 13/06 A3029 RMK A01 T01320055  RH  060%=      5-min Rain = 0
KVA1 092159Z 02004KT 13/06 A3029 RMK A01 T01310055  RH  060%=      5-min Rain = 0
KVA1 092200Z 03005KT 13/06 A3029 RMK A01 T01310057  RH  061%=      5-min Rain = 0
KVA1 092201Z 02003KT 13/05 A3029 RMK A01 T01310054  RH  060%=      5-min Rain = 0
KVA1 092202Z 35003KT 13/05 A3029 RMK A01 T01300054  RH  060%=      5-min Rain = 0
KVA1 092203Z 35001KT 13/05 A3029 RMK A01 T01300054  RH  060%=      5-min Rain = 0
KVA1 092204Z 03005KT 13/06 A3029 RMK A01 T01300057  RH  061%=      5-min Rain = 0
KVA1 092205Z 04005KT 13/06 A3029 RMK A01 T01300056  RH  061%=      5-min Rain = 0
KVA1 092206Z 04005KT 13/06 A3029 RMK A01 T01300055  RH  060%=      5-min Rain = 0
KVA1 092207Z 03005KT 13/06 A3029 RMK A01 T01300056  RH  061%=      5-min Rain = 0
KVA1 092208Z 01005KT 13/06 A3029 RMK A01 T01300057  RH  061%=      5-min Rain = 0
KVA1 092209Z 02005KT 13/06 A3029 RMK A01 T01310055  RH  060%=      5-min Rain = 0
KVA1 092210Z 02005KT 13/06 A3029 RMK A01 T01310056  RH  060%=      5-min Rain = 0
KVA1 092211Z 03004KT 13/06 A3029 RMK A01 T01310057  RH  061%=      5-min Rain = 0
KVA1 092212Z 03004KT 13/06 A3029 RMK A01 T01310056  RH  060%=      5-min Rain = 0
KVA1 092213Z 03005KT 13/06 A3029 RMK A01 T01310056  RH  060%=      5-min Rain = 0
KVA1 092214Z 05006KT 13/06 A3029 RMK A01 T01310057  RH  061%=      5-min Rain = 0
KVA1 092215Z 03006KT 13/06 A3029 RMK A01 T01300057  RH  061%=      5-min Rain = 0
KVA1 092216Z 02006KT 13/06 A3029 RMK A01 T01300058  RH  062%=      5-min Rain = 0
KVA1 092217Z 04007KT 13/06 A3029 RMK A01 T01300057  RH  061%=      5-min Rain = 0
KVA1 092218Z 05007KT 13/06 A3029 RMK A01 T01290056  RH  061%=      5-min Rain = 0
KVA1 092219Z 04007KT 13/06 A3029 RMK A01 T01280055  RH  061%=      5-min Rain = 0
KVA1 092220Z 03006KT 13/06 A3029 RMK A01 T01270055  RH  061%=      5-min Rain = 0
KVA1 092221Z 03004KT 13/05 A3029 RMK A01 T01260054  RH  061%=      5-min Rain = 0
KVA1 092222Z 04003KT 13/06 A3029 RMK A01 T01260056  RH  062%=      5-min Rain = 0
KVA1 092223Z 05006KT 13/06 A3029 RMK A01 T01270057  RH  063%=      5-min Rain = 0
KVA1 092224Z 03008KT 13/06 A3029 RMK A01 T01270056  RH  062%=      5-min Rain = 0
KVA1 092225Z 03006KT 13/06 A3029 RMK A01 T01270057  RH  062%=      5-min Rain = 0
KVA1 092226Z 03004KT 13/06 A3029 RMK A01 T01270057  RH  062%=      5-min Rain = 0
KVA1 092227Z 03007KT 13/06 A3029 RMK A01 T01280057  RH  062%=      5-min Rain = 0
KVA1 092228Z 02006KT 13/06 A3029 RMK A01 T01270055  RH  062%=      5-min Rain = 0
KVA1 092229Z 02007KT 13/06 A3029 RMK A01 T01270056  RH  062%=      5-min Rain = 0
KVA1 092230Z 03006KT 13/06 A3029 RMK A01 T01270058  RH  063%=      5-min Rain = 0
KVA1 092231Z 04006KT 13/06 A3029 RMK A01 T01280059  RH  063%=      5-min Rain = 0
KVA1 092232Z 04006KT 13/06 A3029 RMK A01 T01280057  RH  062%=      5-min Rain = 0
KVA1 092233Z 04006KT 13/06 A3029 RMK A01 T01280057  RH  062%=      5-min Rain = 0
KVA1 092234Z 05007KT 13/06 A3029 RMK A01 T01270056  RH  062%=      5-min Rain = 0
KVA1 092235Z 04006KT 13/06 A3029 RMK A01 T01260056  RH  062%=      5-min Rain = 0
KVA1 092236Z 05006KT 13/06 A3029 RMK A01 T01260056  RH  062%=      5-min Rain = 0
KVA1 092237Z 05005KT 13/06 A3029 RMK A01 T01260056  RH  062%=      5-min Rain = 0
KVA1 092238Z 05006KT 13/06 A3029 RMK A01 T01260056  RH  062%=      5-min Rain = 0
KVA1 092239Z 05006KT 13/06 A3029 RMK A01 T01250055  RH  062%=      5-min Rain = 0
KVA1 092240Z 05005KT 13/06 A3029 RMK A01 T01250055  RH  062%=      5-min Rain = 0
KVA1 092241Z 03004KT 13/06 A303 RMK A01 T01260055  RH  062%=      5-min Rain = 0
KVA1 092242Z 03005KT 13/06 A303 RMK A01 T01250055  RH  062%=      5-min Rain = 0
KVA1 092243Z 03005KT 13/06 A303 RMK A01 T01260055  RH  062%=      5-min Rain = 0
KVA1 092244Z 05005KT 13/06 A303 RMK A01 T01250055  RH  062%=      5-min Rain = 0
KVA1 092245Z 03007KT 13/06 A303 RMK A01 T01250055  RH  062%=      5-min Rain = 0
KVA1 092246Z 04005KT 13/05 A303 RMK A01 T01250053  RH  061%=      5-min Rain = 0
KVA1 092247Z 04005KT 13/05 A303 RMK A01 T01250053  RH  062%=      5-min Rain = 0
KVA1 092248Z 04005KT 12/05 A303 RMK A01 T01240053  RH  062%=      5-min Rain = 0
KVA1 092249Z 02004KT 13/06 A303 RMK A01 T01250055  RH  063%=      5-min Rain = 0
KVA1 092250Z 04004KT 13/06 A303 RMK A01 T01250055  RH  062%=      5-min Rain = 0
KVA1 092251Z 05006KT 13/05 A303 RMK A01 T01250052  RH  061%=      5-min Rain = 0
KVA1 092252Z 04004KT 13/05 A303 RMK A01 T01250053  RH  062%=      5-min Rain = 0
KVA1 092253Z 05005KT 12/05 A303 RMK A01 T01240053  RH  062%=      5-min Rain = 0
KVA1 092254Z 06005KT 12/05 A303 RMK A01 T01240052  RH  061%=      5-min Rain = 0
KVA1 092255Z 05004KT 12/05 A303 RMK A01 T01230051  RH  061%=      5-min Rain = 0
KVA1 092256Z 05004KT 12/05 A303 RMK A01 T01230052  RH  062%=      5-min Rain = 0
KVA1 092257Z 04006KT 12/05 A303 RMK A01 T01230052  RH  062%=      5-min Rain = 0
KVA1 092258Z 04006KT 12/05 A303 RMK A01 T01240051  RH  061%=      5-min Rain = 0
KVA1 092259Z 03006KT 12/05 A303 RMK A01 T01240052  RH  061%=      5-min Rain = 0
KVA1 092300Z 04005KT 12/05 A303 RMK A01 T01240052  RH  062%=      5-min Rain = 0
KVA1 092301Z 02005KT 12/05 A303 RMK A01 T01230050  RH  061%=      5-min Rain = 0
KVA1 092302Z 03004KT 12/05 A303 RMK A01 T01230051  RH  062%=      5-min Rain = 0
KVA1 092303Z 04005KT 12/05 A303 RMK A01 T01230051  RH  061%=      5-min Rain = 0
KVA1 092304Z 02004KT 12/05 A303 RMK A01 T01230051  RH  062%=      5-min Rain = 0
KVA1 092305Z 03004KT 12/05 A303 RMK A01 T01230051  RH  061%=      5-min Rain = 0
KVA1 092306Z 02004KT 12/05 A303 RMK A01 T01230050  RH  061%=      5-min Rain = 0
KVA1 092307Z 02005KT 12/05 A303 RMK A01 T01230051  RH  062%=      5-min Rain = 0
KVA1 092308Z 03005KT 12/05 A303 RMK A01 T01230051  RH  061%=      5-min Rain = 0
KVA1 092309Z 03005KT 12/05 A303 RMK A01 T01230050  RH  061%=      5-min Rain = 0
KVA1 092310Z 03004KT 12/05 A303 RMK A01 T01230051  RH  062%=      5-min Rain = 0
KVA1 092311Z 01004KT 12/05 A303 RMK A01 T01230051  RH  062%=      5-min Rain = 0
KVA1 092312Z 02005KT 12/05 A303 RMK A01 T01230052  RH  062%=      5-min Rain = 0
KVA1 092313Z 02005KT 12/05 A303 RMK A01 T01230051  RH  062%=      5-min Rain = 0
KVA1 092314Z 01005KT 12/05 A303 RMK A01 T01230050  RH  061%=      5-min Rain = 0
KVA1 092315Z 01004KT 12/05 A303 RMK A01 T01220051  RH  062%=      5-min Rain = 0
KVA1 092316Z 02004KT 12/05 A303 RMK A01 T01220051  RH  062%=      5-min Rain = 0
KVA1 092317Z 02005KT 12/05 A303 RMK A01 T01220050  RH  061%=      5-min Rain = 0
KVA1 092318Z 02005KT 12/05 A303 RMK A01 T01220049  RH  061%=      5-min Rain = 0
KVA1 092319Z 02005KT 12/05 A303 RMK A01 T01210049  RH  061%=      5-min Rain = 0
KVA1 092320Z 02004KT 12/05 A303 RMK A01 T01210049  RH  061%=      5-min Rain = 0
KVA1 092321Z 03004KT 12/05 A303 RMK A01 T01210049  RH  062%=      5-min Rain = 0
KVA1 092322Z 03005KT 12/05 A303 RMK A01 T01210051  RH  062%=      5-min Rain = 0
KVA1 092323Z 04006KT 12/05 A303 RMK A01 T01210050  RH  062%=      5-min Rain = 0
KVA1 092324Z 03005KT 12/05 A303 RMK A01 T01200049  RH  062%=      5-min Rain = 0
KVA1 092325Z 03006KT 12/05 A303 RMK A01 T01200050  RH  062%=      5-min Rain = 0
KVA1 092326Z 03006KT 12/05 A303 RMK A01 T01190048  RH  062%=      5-min Rain = 0
KVA1 092327Z 04005KT 12/05 A303 RMK A01 T01190048  RH  062%=      5-min Rain = 0
KVA1 092328Z 04004KT 12/05 A303 RMK A01 T01180048  RH  062%=      5-min Rain = 0
KVA1 092329Z 03005KT 12/05 A303 RMK A01 T01190050  RH  063%=      5-min Rain = 0
KVA1 092330Z 03005KT 12/05 A303 RMK A01 T01180050  RH  063%=      5-min Rain = 0
KVA1 092331Z 03005KT 12/05 A303 RMK A01 T01180049  RH  063%=      5-min Rain = 0
KVA1 092332Z 03006KT 12/05 A303 RMK A01 T01180050  RH  063%=      5-min Rain = 0
KVA1 092333Z 03006KT 12/05 A303 RMK A01 T01170048  RH  063%=      5-min Rain = 0
KVA1 092334Z 03005KT 12/05 A303 RMK A01 T01170049  RH  063%=      5-min Rain = 0
KVA1 092335Z 02005KT 12/05 A303 RMK A01 T01160049  RH  063%=      5-min Rain = 0
KVA1 092336Z 03003KT 12/05 A303 RMK A01 T01160051  RH  064%=      5-min Rain = 0
KVA1 092337Z 03005KT 12/05 A303 RMK A01 T01160052  RH  065%=      5-min Rain = 0
KVA1 092338Z 03005KT 12/05 A3031 RMK A01 T01150049  RH  064%=      5-min Rain = 0
KVA1 092339Z 03004KT 12/05 A3031 RMK A01 T01150049  RH  064%=      5-min Rain = 0
KVA1 092340Z 03005KT 12/05 A3031 RMK A01 T01150050  RH  064%=      5-min Rain = 0
KVA1 092341Z 03004KT 11/05 A3031 RMK A01 T01140050  RH  065%=      5-min Rain = 0
KVA1 092342Z 03004KT 11/05 A3031 RMK A01 T01140050  RH  065%=      5-min Rain = 0
KVA1 092343Z 03004KT 11/05 A3031 RMK A01 T01130050  RH  065%=      5-min Rain = 0
KVA1 092344Z 03005KT 11/05 A3031 RMK A01 T01130050  RH  065%=      5-min Rain = 0
KVA1 092345Z 03004KT 11/05 A3031 RMK A01 T01120049  RH  065%=      5-min Rain = 0
KVA1 092346Z 03004KT 11/05 A3031 RMK A01 T01120050  RH  066%=      5-min Rain = 0
KVA1 092347Z 03005KT 11/05 A3031 RMK A01 T01110049  RH  066%=      5-min Rain = 0
KVA1 092348Z 03005KT 11/05 A3031 RMK A01 T01100049  RH  066%=      5-min Rain = 0
KVA1 092349Z 03005KT 11/05 A3031 RMK A01 T01090049  RH  066%=      5-min Rain = 0
KVA1 092350Z 03005KT 11/05 A3031 RMK A01 T01090048  RH  066%=      5-min Rain = 0
KVA1 092351Z 03005KT 11/05 A3031 RMK A01 T01080048  RH  066%=      5-min Rain = 0
KVA1 092352Z 03005KT 11/05 A3031 RMK A01 T01070047  RH  067%=      5-min Rain = 0
KVA1 092353Z 03004KT 11/05 A3031 RMK A01 T01070048  RH  067%=      5-min Rain = 0
KVA1 092354Z 03004KT 11/05 A3031 RMK A01 T01060048  RH  067%=      5-min Rain = 0
KVA1 092355Z 03004KT 11/05 A3031 RMK A01 T01050048  RH  068%=      5-min Rain = 0
KVA1 092356Z 03004KT 11/05 A3031 RMK A01 T01050047  RH  068%=      5-min Rain = 0
KVA1 092357Z 02004KT 10/05 A3031 RMK A01 T01040048  RH  068%=      5-min Rain = 0
KVA1 092358Z 02005KT 10/05 A3031 RMK A01 T01040048  RH  068%=      5-min Rain = 0
KVA1 092359Z 02005KT 10/05 A3031 RMK A01 T01030048  RH  069%=      5-min Rain = 0
KVA1 100000Z 02005KT 10/05 A3031 RMK A01 T01020048  RH  069%=      5-min Rain = 0
KVA1 100001Z 02004KT 10/05 A3031 RMK A01 T01010048  RH  070%=      5-min Rain = 0
KVA1 100002Z 02004KT 10/05 A3031 RMK A01 T01010049  RH  070%=      5-min Rain = 0
KVA1 100003Z 02004KT 10/05 A3031 RMK A01 T01000049  RH  071%=      5-min Rain = 0
KVA1 100004Z 02004KT 10/05 A3031 RMK A01 T00990049  RH  071%=      5-min Rain = 0
KVA1 100005Z 02005KT 10/05 A3031 RMK A01 T00980049  RH  071%=      5-min Rain = 0
KVA1 100006Z 02005KT 10/05 A3031 RMK A01 T00980049  RH  072%=      5-min Rain = 0
KVA1 100007Z 02005KT 10/05 A3031 RMK A01 T00970049  RH  072%=      5-min Rain = 0
KVA1 100008Z 02005KT 10/05 A3031 RMK A01 T00960049  RH  072%=      5-min Rain = 0
KVA1 100009Z 02005KT 10/05 A3031 RMK A01 T00960049  RH  073%=      5-min Rain = 0
KVA1 100010Z 02005KT 10/05 A3031 RMK A01 T00950049  RH  073%=      5-min Rain = 0
KVA1 100011Z 02004KT 10/05 A3031 RMK A01 T00950049  RH  073%=      5-min Rain = 0
KVA1 100012Z 02004KT 09/05 A3031 RMK A01 T00940049  RH  073%=      5-min Rain = 0
KVA1 100013Z 02004KT 09/05 A3031 RMK A01 T00940050  RH  074%=      5-min Rain = 0
KVA1 100014Z 02004KT 09/05 A3031 RMK A01 T00930051  RH  075%=      5-min Rain = 0
KVA1 100015Z 01004KT 09/05 A3031 RMK A01 T00930050  RH  075%=      5-min Rain = 0
KVA1 100016Z 02004KT 09/05 A3031 RMK A01 T00920050  RH  075%=      5-min Rain = 0
KVA1 100017Z 02004KT 09/05 A3031 RMK A01 T00920051  RH  075%=      5-min Rain = 0
KVA1 100018Z 02005KT 09/05 A3031 RMK A01 T00910050  RH  075%=      5-min Rain = 0
KVA1 100019Z 02005KT 09/05 A3031 RMK A01 T00910050  RH  076%=      5-min Rain = 0
KVA1 100020Z 02005KT 09/05 A3031 RMK A01 T00910050  RH  076%=      5-min Rain = 0
KVA1 100021Z 02005KT 09/05 A3031 RMK A01 T00900050  RH  076%=      5-min Rain = 0
KVA1 100022Z 02005KT 09/05 A3031 RMK A01 T00900050  RH  076%=      5-min Rain = 0
KVA1 100023Z 02005KT 09/05 A3031 RMK A01 T00900050  RH  076%=      5-min Rain = 0
KVA1 100024Z 01005KT 09/05 A3031 RMK A01 T00890050  RH  076%=      5-min Rain = 0
KVA1 100025Z 01006KT 09/05 A3032 RMK A01 T00890050  RH  077%=      5-min Rain = 0
KVA1 100026Z 01006KT 09/05 A3032 RMK A01 T00880050  RH  077%=      5-min Rain = 0
KVA1 100027Z 01006KT 09/05 A3032 RMK A01 T00880050  RH  077%=      5-min Rain = 0
KVA1 100028Z 01006KT 09/05 A3032 RMK A01 T00870049  RH  077%=      5-min Rain = 0
KVA1 100029Z 01006KT 09/05 A3032 RMK A01 T00870049  RH  077%=      5-min Rain = 0
KVA1 100030Z 01006KT 09/05 A3032 RMK A01 T00870049  RH  077%=      5-min Rain = 0
KVA1 100031Z 01006KT 09/05 A3032 RMK A01 T00870049  RH  077%=      5-min Rain = 0
KVA1 100032Z 00005KT 09/05 A3032 RMK A01 T00870049  RH  077%=      5-min Rain = 0
KVA1 100033Z 00005KT 09/05 A3032 RMK A01 T00860049  RH  078%=      5-min Rain = 0
KVA1 100034Z 00005KT 09/05 A3032 RMK A01 T00850049  RH  078%=      5-min Rain = 0
KVA1 100035Z 00005KT 09/05 A3032 RMK A01 T00850050  RH  078%=      5-min Rain = 0
KVA1 100036Z 00005KT 08/05 A3032 RMK A01 T00840050  RH  079%=      5-min Rain = 0
KVA1 100037Z 00005KT 08/05 A3032 RMK A01 T00840050  RH  079%=      5-min Rain = 0
KVA1 100038Z 00005KT 08/05 A3032 RMK A01 T00840050  RH  079%=      5-min Rain = 0
KVA1 100039Z 00005KT 08/05 A3032 RMK A01 T00830050  RH  080%=      5-min Rain = 0
KVA1 100040Z 00005KT 08/05 A3032 RMK A01 T00830050  RH  080%=      5-min Rain = 0
KVA1 100041Z 00005KT 08/05 A3032 RMK A01 T00820050  RH  080%=      5-min Rain = 0
KVA1 100042Z 00005KT 08/05 A3032 RMK A01 T00810049  RH  080%=      5-min Rain = 0
KVA1 100043Z 00005KT 08/05 A3032 RMK A01 T00810049  RH  081%=      5-min Rain = 0
KVA1 100044Z 36005KT 08/05 A3032 RMK A01 T00810050  RH  081%=      5-min Rain = 0
KVA1 100045Z 35004KT 08/05 A3032 RMK A01 T00800049  RH  081%=      5-min Rain = 0
KVA1 100046Z 35005KT 08/05 A3032 RMK A01 T00800049  RH  081%=      5-min Rain = 0
KVA1 100047Z 35005KT 08/05 A3032 RMK A01 T00790049  RH  081%=      5-min Rain = 0
KVA1 100048Z 35005KT 08/05 A3032 RMK A01 T00790049  RH  082%=      5-min Rain = 0
KVA1 100049Z 35005KT 08/05 A3032 RMK A01 T00780049  RH  082%=      5-min Rain = 0
KVA1 100050Z 36005KT 08/05 A3032 RMK A01 T00780049  RH  082%=      5-min Rain = 0
KVA1 100051Z 35005KT 08/05 A3032 RMK A01 T00770049  RH  082%=      5-min Rain = 0
KVA1 100052Z 35004KT 08/05 A3032 RMK A01 T00770049  RH  082%=      5-min Rain = 0
KVA1 100053Z 35004KT 08/05 A3032 RMK A01 T00770049  RH  082%=      5-min Rain = 0
KVA1 100054Z 35004KT 08/05 A3032 RMK A01 T00770049  RH  083%=      5-min Rain = 0
KVA1 100055Z 35004KT 08/05 A3032 RMK A01 T00770049  RH  083%=      5-min Rain = 0
KVA1 100056Z 35005KT 08/05 A3032 RMK A01 T00770049  RH  083%=      5-min Rain = 0
KVA1 100057Z 35005KT 08/05 A3032 RMK A01 T00760048  RH  083%=      5-min Rain = 0
KVA1 100058Z 36005KT 08/05 A3032 RMK A01 T00760048  RH  083%=      5-min Rain = 0
KVA1 100059Z 36005KT 08/05 A3032 RMK A01 T00760048  RH  083%=      5-min Rain = 0
KVA1 100100Z 36005KT 08/05 A3032 RMK A01 T00750048  RH  083%=      5-min Rain = 0
KVA1 100101Z 00005KT 08/05 A3032 RMK A01 T00760048  RH  083%=      5-min Rain = 0
KVA1 100102Z 00005KT 08/05 A3032 RMK A01 T00760047  RH  082%=      5-min Rain = 0
KVA1 100103Z 02005KT 08/05 A3033 RMK A01 T00760048  RH  082%=      5-min Rain = 0
KVA1 100104Z 08006KT 08/05 A3033 RMK A01 T00750048  RH  083%=      5-min Rain = 0
KVA1 100105Z 07005KT 07/05 A3033 RMK A01 T00730048  RH  084%=      5-min Rain = 0
KVA1 100106Z 08006KT 07/05 A3033 RMK A01 T00730048  RH  084%=      5-min Rain = 0
KVA1 100107Z 07006KT 07/05 A3033 RMK A01 T00720048  RH  084%=      5-min Rain = 0
KVA1 100108Z 07005KT 07/05 A3033 RMK A01 T00730048  RH  084%=      5-min Rain = 0
KVA1 100109Z 06006KT 07/05 A3033 RMK A01 T00740048  RH  084%=      5-min Rain = 0
KVA1 100110Z 06006KT 08/05 A3033 RMK A01 T00750048  RH  083%=      5-min Rain = 0
KVA1 100111Z 05005KT 08/05 A3033 RMK A01 T00760049  RH  083%=      5-min Rain = 0
KVA1 100112Z 06006KT 08/05 A3033 RMK A01 T00770049  RH  083%=      5-min Rain = 0
KVA1 100113Z 06006KT 08/05 A3033 RMK A01 T00770049  RH  083%=      5-min Rain = 0
KVA1 100114Z 06006KT 08/05 A3033 RMK A01 T00770049  RH  083%=      5-min Rain = 0
KVA1 100115Z 06006KT 08/05 A3033 RMK A01 T00770049  RH  083%=      5-min Rain = 0
KVA1 100116Z 07005KT 08/05 A3033 RMK A01 T00770049  RH  083%=      5-min Rain = 0
KVA1 100117Z 07006KT 08/05 A3033 RMK A01 T00770049  RH  083%=      5-min Rain = 0
KVA1 100118Z 07005KT 08/05 A3033 RMK A01 T00760049  RH  083%=      5-min Rain = 0
KVA1 100119Z 07005KT 08/05 A3033 RMK A01 T00760049  RH  083%=      5-min Rain = 0
KVA1 100120Z 06005KT 08/05 A3033 RMK A01 T00750049  RH  084%=      5-min Rain = 0
KVA1 100121Z 06006KT 08/05 A3033 RMK A01 T00750049  RH  084%=      5-min Rain = 0
KVA1 100122Z 06006KT 08/05 A3033 RMK A01 T00750050  RH  084%=      5-min Rain = 0
KVA1 100123Z 05006KT 08/05 A3033 RMK A01 T00750050  RH  084%=      5-min Rain = 0
KVA1 100124Z 05006KT 08/05 A3033 RMK A01 T00750050  RH  084%=      5-min Rain = 0
KVA1 100125Z 06006KT 07/05 A3033 RMK A01 T00740050  RH  085%=      5-min Rain = 0
KVA1 100126Z 06006KT 07/05 A3033 RMK A01 T00740050  RH  085%=      5-min Rain = 0
KVA1 100127Z 07006KT 07/05 A3033 RMK A01 T00740050  RH  084%=      5-min Rain = 0
KVA1 100128Z 06005KT 07/05 A3034 RMK A01 T00740050  RH  084%=      5-min Rain = 0
KVA1 100129Z 06005KT 07/05 A3034 RMK A01 T00740049  RH  084%=      5-min Rain = 0
KVA1 100130Z 06005KT 07/05 A3034 RMK A01 T00740049  RH  084%=      5-min Rain = 0
KVA1 100131Z 05005KT 07/05 A3034 RMK A01 T00740049  RH  084%=      5-min Rain = 0
KVA1 100132Z 05005KT 07/05 A3034 RMK A01 T00740050  RH  085%=      5-min Rain = 0
KVA1 100133Z 05006KT 07/05 A3034 RMK A01 T00730049  RH  085%=      5-min Rain = 0
KVA1 100134Z 05005KT 07/05 A3034 RMK A01 T00720049  RH  085%=      5-min Rain = 0
KVA1 100135Z 06005KT 07/05 A3034 RMK A01 T00720049  RH  085%=      5-min Rain = 0
KVA1 100136Z 06006KT 07/05 A3034 RMK A01 T00720049  RH  086%=      5-min Rain = 0
KVA1 100137Z 06006KT 07/05 A3034 RMK A01 T00710049  RH  086%=      5-min Rain = 0
KVA1 100138Z 06006KT 07/05 A3034 RMK A01 T00700049  RH  086%=      5-min Rain = 0
KVA1 100139Z 06006KT 07/05 A3034 RMK A01 T00700049  RH  086%=      5-min Rain = 0
KVA1 100140Z 06006KT 07/05 A3034 RMK A01 T00690049  RH  087%=      5-min Rain = 0
KVA1 100141Z 06006KT 07/05 A3034 RMK A01 T00690048  RH  087%=      5-min Rain = 0
KVA1 100142Z 06005KT 07/05 A3034 RMK A01 T00690048  RH  087%=      5-min Rain = 0
KVA1 100143Z 06006KT 07/05 A3034 RMK A01 T00690048  RH  087%=      5-min Rain = 0
KVA1 100144Z 06005KT 07/05 A3034 RMK A01 T00680047  RH  086%=      5-min Rain = 0
KVA1 100145Z 07005KT 07/05 A3034 RMK A01 T00680047  RH  086%=      5-min Rain = 0
KVA1 100146Z 07005KT 07/05 A3034 RMK A01 T00680047  RH  086%=      5-min Rain = 0
KVA1 100147Z 07005KT 07/05 A3034 RMK A01 T00680047  RH  087%=      5-min Rain = 0
KVA1 100148Z 07005KT 07/05 A3034 RMK A01 T00670046  RH  087%=      5-min Rain = 0
KVA1 100149Z 07004KT 07/05 A3034 RMK A01 T00670046  RH  087%=      5-min Rain = 0
KVA1 100150Z 06004KT 07/05 A3034 RMK A01 T00660046  RH  087%=      5-min Rain = 0
KVA1 100151Z 06004KT 07/05 A3034 RMK A01 T00660046  RH  087%=      5-min Rain = 0
KVA1 100152Z 06004KT 07/05 A3034 RMK A01 T00660046  RH  087%=      5-min Rain = 0
KVA1 100153Z 05004KT 07/05 A3034 RMK A01 T00660046  RH  087%=      5-min Rain = 0
KVA1 100154Z 06005KT 07/05 A3034 RMK A01 T00650046  RH  088%=      5-min Rain = 0
KVA1 100155Z 06004KT 07/05 A3034 RMK A01 T00650046  RH  088%=      5-min Rain = 0
KVA1 100156Z 06004KT 06/05 A3034 RMK A01 T00640046  RH  088%=      5-min Rain = 0
KVA1 100157Z 06004KT 06/05 A3034 RMK A01 T00640046  RH  088%=      5-min Rain = 0
KVA1 100158Z 07004KT 06/05 A3034 RMK A01 T00630046  RH  088%=      5-min Rain = 0
KVA1 100159Z 07005KT 06/05 A3034 RMK A01 T00630045  RH  089%=      5-min Rain = 0
KVA1 100200Z 07004KT 06/05 A3034 RMK A01 T00620045  RH  089%=      5-min Rain = 0
KVA1 100201Z 06004KT 06/05 A3034 RMK A01 T00620045  RH  089%=      5-min Rain = 0
KVA1 100202Z 06004KT 06/05 A3034 RMK A01 T00620045  RH  089%=      5-min Rain = 0
KVA1 100203Z 07004KT 06/04 A3034 RMK A01 T00620044  RH  089%=      5-min Rain = 0
KVA1 100204Z 06006KT 06/04 A3035 RMK A01 T00620044  RH  089%=      5-min Rain = 0
KVA1 100205Z 07005KT 06/04 A3035 RMK A01 T00610044  RH  088%=      5-min Rain = 0
KVA1 100206Z 06005KT 06/04 A3035 RMK A01 T00620044  RH  088%=      5-min Rain = 0
KVA1 100207Z 06005KT 06/04 A3035 RMK A01 T00610043  RH  088%=      5-min Rain = 0
KVA1 100208Z 07005KT 06/04 A3035 RMK A01 T00620044  RH  088%=      5-min Rain = 0
KVA1 100209Z 07005KT 06/04 A3035 RMK A01 T00610043  RH  088%=      5-min Rain = 0
KVA1 100210Z 07005KT 06/04 A3035 RMK A01 T00610043  RH  088%=      5-min Rain = 0
KVA1 100211Z 07005KT 06/04 A3035 RMK A01 T00610043  RH  088%=      5-min Rain = 0
KVA1 100212Z 06005KT 06/04 A3035 RMK A01 T00610043  RH  088%=      5-min Rain = 0
KVA1 100213Z 07004KT 06/04 A3035 RMK A01 T00610043  RH  088%=      5-min Rain = 0
KVA1 100214Z 06005KT 06/04 A3035 RMK A01 T00610043  RH  088%=      5-min Rain = 0
KVA1 100215Z 06005KT 06/04 A3035 RMK A01 T00610043  RH  088%=      5-min Rain = 0
KVA1 100216Z 06004KT 06/04 A3035 RMK A01 T00610042  RH  088%=      5-min Rain = 0
KVA1 100217Z 05005KT 06/04 A3035 RMK A01 T00610042  RH  088%=      5-min Rain = 0
KVA1 100218Z 05005KT 06/04 A3035 RMK A01 T00600042  RH  088%=      5-min Rain = 0
KVA1 100219Z 05004KT 06/04 A3035 RMK A01 T00600042  RH  088%=      5-min Rain = 0
KVA1 100220Z 04005KT 06/04 A3035 RMK A01 T00600042  RH  088%=      5-min Rain = 0
KVA1 100221Z 04004KT 06/04 A3035 RMK A01 T00590042  RH  088%=      5-min Rain = 0
KVA1 100222Z 03004KT 06/04 A3035 RMK A01 T00590041  RH  089%=      5-min Rain = 0
KVA1 100223Z 03004KT 06/04 A3035 RMK A01 T00580041  RH  089%=      5-min Rain = 0
KVA1 100224Z 02004KT 06/04 A3035 RMK A01 T00570041  RH  089%=      5-min Rain = 0
KVA1 100225Z 01004KT 06/04 A3035 RMK A01 T00560040  RH  089%=      5-min Rain = 0
KVA1 100226Z 02004KT 06/04 A3035 RMK A01 T00560040  RH  090%=      5-min Rain = 0
KVA1 100227Z 02004KT 06/04 A3035 RMK A01 T00550040  RH  090%=      5-min Rain = 0
KVA1 100228Z 02004KT 05/04 A3035 RMK A01 T00540040  RH  090%=      5-min Rain = 0
KVA1 100229Z 01004KT 05/04 A3035 RMK A01 T00540040  RH  091%=      5-min Rain = 0
KVA1 100230Z 01004KT 05/04 A3035 RMK A01 T00540040  RH  091%=      5-min Rain = 0
KVA1 100231Z 01004KT 05/04 A3035 RMK A01 T00540040  RH  091%=      5-min Rain = 0
KVA1 100232Z 01004KT 05/04 A3035 RMK A01 T00530040  RH  091%=      5-min Rain = 0
KVA1 100233Z 01004KT 05/04 A3035 RMK A01 T00530040  RH  091%=      5-min Rain = 0
KVA1 100234Z 01005KT 05/04 A3035 RMK A01 T00530040  RH  091%=      5-min Rain = 0
KVA1 100235Z 01004KT 05/04 A3035 RMK A01 T00520040  RH  091%=      5-min Rain = 0
KVA1 100236Z 01004KT 05/04 A3035 RMK A01 T00520040  RH  092%=      5-min Rain = 0
KVA1 100237Z 01004KT 05/04 A3035 RMK A01 T00520039  RH  092%=      5-min Rain = 0
KVA1 100238Z 01005KT 05/04 A3035 RMK A01 T00520040  RH  092%=      5-min Rain = 0
KVA1 100239Z 01005KT 05/04 A3035 RMK A01 T00510039  RH  092%=      5-min Rain = 0
KVA1 100240Z 01004KT 05/04 A3035 RMK A01 T00510040  RH  092%=      5-min Rain = 0
KVA1 100241Z 01004KT 05/04 A3035 RMK A01 T00510039  RH  092%=      5-min Rain = 0
KVA1 100242Z 00004KT 05/04 A3035 RMK A01 T00510040  RH  092%=      5-min Rain = 0
KVA1 100243Z 00004KT 05/04 A3035 RMK A01 T00510040  RH  092%=      5-min Rain = 0
KVA1 100244Z 36004KT 05/04 A3035 RMK A01 T00510040  RH  092%=      5-min Rain = 0
KVA1 100245Z 36004KT 05/04 A3035 RMK A01 T00510040  RH  092%=      5-min Rain = 0
KVA1 100246Z 00004KT 05/04 A3035 RMK A01 T00500039  RH  092%=      5-min Rain = 0
KVA1 100247Z 35003KT 05/04 A3035 RMK A01 T00500038  RH  092%=      5-min Rain = 0
KVA1 100248Z 35004KT 05/04 A3035 RMK A01 T00490037  RH  092%=      5-min Rain = 0
KVA1 100249Z 35004KT 05/04 A3035 RMK A01 T00480037  RH  092%=      5-min Rain = 0
KVA1 100250Z 35004KT 05/04 A3035 RMK A01 T00470036  RH  092%=      5-min Rain = 0
KVA1 100251Z 36004KT 05/04 A3035 RMK A01 T00470036  RH  092%=      5-min Rain = 0
KVA1 100252Z 35004KT 05/04 A3035 RMK A01 T00470036  RH  093%=      5-min Rain = 0
KVA1 100253Z 35005KT 05/04 A3035 RMK A01 T00460036  RH  093%=      5-min Rain = 0
KVA1 100254Z 36004KT 05/04 A3035 RMK A01 T00460036  RH  093%=      5-min Rain = 0
KVA1 100255Z 35005KT 05/04 A3035 RMK A01 T00460036  RH  093%=      5-min Rain = 0
KVA1 100256Z 35005KT 05/04 A3035 RMK A01 T00460036  RH  093%=      5-min Rain = 0
KVA1 100257Z 35004KT 05/04 A3035 RMK A01 T00460036  RH  093%=      5-min Rain = 0
KVA1 100258Z 35004KT 05/04 A3035 RMK A01 T00450035  RH  093%=      5-min Rain = 0
KVA1 100259Z 35004KT 05/04 A3035 RMK A01 T00450036  RH  093%=      5-min Rain = 0
KVA1 100300Z 34004KT 05/04 A3035 RMK A01 T00450036  RH  093%=      5-min Rain = 0
KVA1 100301Z 34004KT 05/04 A3035 RMK A01 T00450035  RH  094%=      5-min Rain = 0
KVA1 100302Z 34004KT 04/04 A3035 RMK A01 T00440035  RH  094%=      5-min Rain = 0
KVA1 100303Z 34004KT 04/04 A3035 RMK A01 T00440035  RH  094%=      5-min Rain = 0
KVA1 100304Z 34005KT 04/03 A3035 RMK A01 T00440034  RH  094%=      5-min Rain = 0
KVA1 100305Z 34005KT 04/03 A3035 RMK A01 T00430034  RH  094%=      5-min Rain = 0
KVA1 100306Z 34005KT 04/03 A3035 RMK A01 T00430034  RH  094%=      5-min Rain = 0
KVA1 100307Z 34005KT 04/04 A3035 RMK A01 T00430035  RH  094%=      5-min Rain = 0
KVA1 100308Z 34005KT 04/04 A3035 RMK A01 T00430035  RH  094%=      5-min Rain = 0
KVA1 100309Z 33005KT 04/03 A3035 RMK A01 T00430034  RH  094%=      5-min Rain = 0
KVA1 100310Z 33005KT 04/03 A3035 RMK A01 T00430034  RH  094%=      5-min Rain = 0
KVA1 100311Z 33005KT 04/03 A3035 RMK A01 T00420034  RH  094%=      5-min Rain = 0
KVA1 100312Z 33005KT 04/04 A3035 RMK A01 T00430035  RH  094%=      5-min Rain = 0
KVA1 100313Z 33005KT 04/03 A3035 RMK A01 T00420034  RH  094%=      5-min Rain = 0
KVA1 100314Z 33005KT 04/03 A3035 RMK A01 T00420034  RH  094%=      5-min Rain = 0
KVA1 100315Z 33006KT 04/03 A3035 RMK A01 T00420034  RH  095%=      5-min Rain = 0
KVA1 100316Z 33006KT 04/03 A3035 RMK A01 T00420034  RH  095%=      5-min Rain = 0
KVA1 100317Z 33006KT 04/03 A3035 RMK A01 T00420034  RH  095%=      5-min Rain = 0
KVA1 100318Z 33006KT 04/03 A3035 RMK A01 T00420034  RH  095%=      5-min Rain = 0
KVA1 100319Z 33006KT 04/03 A3035 RMK A01 T00420034  RH  095%=      5-min Rain = 0
KVA1 100320Z 33006KT 04/03 A3035 RMK A01 T00420034  RH  095%=      5-min Rain = 0
KVA1 100321Z 33006KT 04/03 A3035 RMK A01 T00420034  RH  095%=      5-min Rain = 0
KVA1 100322Z 32006KT 04/03 A3036 RMK A01 T00420034  RH  095%=      5-min Rain = 0
KVA1 100323Z 32006KT 04/03 A3036 RMK A01 T00420034  RH  095%=      5-min Rain = 0
KVA1 100324Z 32005KT 04/03 A3036 RMK A01 T00420034  RH  095%=      5-min Rain = 0
KVA1 100325Z 32006KT 04/03 A3036 RMK A01 T00420034  RH  095%=      5-min Rain = 0
KVA1 100326Z 32005KT 04/03 A3036 RMK A01 T00410034  RH  095%=      5-min Rain = 0
KVA1 100327Z 32005KT 04/03 A3036 RMK A01 T00410034  RH  095%=      5-min Rain = 0
KVA1 100328Z 32005KT 04/03 A3036 RMK A01 T00410034  RH  095%=      5-min Rain = 0
KVA1 100329Z 32005KT 04/03 A3036 RMK A01 T00410033  RH  095%=      5-min Rain = 0
KVA1 100330Z 33006KT 04/03 A3036 RMK A01 T00410033  RH  095%=      5-min Rain = 0
KVA1 100331Z 33006KT 04/03 A3036 RMK A01 T00410033  RH  095%=      5-min Rain = 0
KVA1 100332Z 33006KT 04/03 A3036 RMK A01 T00400033  RH  095%=      5-min Rain = 0
KVA1 100333Z 33006KT 04/03 A3036 RMK A01 T00400033  RH  095%=      5-min Rain = 0
KVA1 100334Z 33006KT 04/03 A3036 RMK A01 T00400032  RH  095%=      5-min Rain = 0
KVA1 100335Z 34006KT 04/03 A3036 RMK A01 T00400033  RH  095%=      5-min Rain = 0
KVA1 100336Z 34005KT 04/03 A3036 RMK A01 T00390032  RH  095%=      5-min Rain = 0
KVA1 100337Z 34005KT 04/03 A3036 RMK A01 T00390032  RH  095%=      5-min Rain = 0
KVA1 100338Z 34005KT 04/03 A3036 RMK A01 T00390032  RH  095%=      5-min Rain = 0
KVA1 100339Z 34005KT 04/03 A3036 RMK A01 T00390032  RH  095%=      5-min Rain = 0
KVA1 100340Z 34005KT 04/03 A3036 RMK A01 T00390032  RH  095%=      5-min Rain = 0
KVA1 100341Z 34005KT 04/03 A3036 RMK A01 T00390032  RH  095%=      5-min Rain = 0
KVA1 100342Z 34005KT 04/03 A3036 RMK A01 T00380031  RH  095%=      5-min Rain = 0
KVA1 100343Z 34005KT 04/03 A3036 RMK A01 T00380031  RH  095%=      5-min Rain = 0
KVA1 100344Z 33005KT 04/03 A3036 RMK A01 T00380031  RH  095%=      5-min Rain = 0
KVA1 100345Z 33004KT 04/03 A3036 RMK A01 T00380031  RH  095%=      5-min Rain = 0
KVA1 100346Z 32004KT 04/03 A3036 RMK A01 T00370031  RH  095%=      5-min Rain = 0
KVA1 100347Z 32004KT 04/03 A3036 RMK A01 T00370030  RH  095%=      5-min Rain = 0
KVA1 100348Z 32005KT 04/03 A3036 RMK A01 T00370030  RH  095%=      5-min Rain = 0
KVA1 100349Z 31005KT 04/03 A3036 RMK A01 T00360029  RH  095%=      5-min Rain = 0
KVA1 100350Z 31004KT 04/03 A3036 RMK A01 T00350028  RH  095%=      5-min Rain = 0
KVA1 100351Z 30004KT 04/03 A3036 RMK A01 T00350028  RH  095%=      5-min Rain = 0
KVA1 100352Z 30004KT 04/03 A3036 RMK A01 T00360029  RH  095%=      5-min Rain = 0
KVA1 100353Z 30004KT 04/03 A3036 RMK A01 T00350029  RH  096%=      5-min Rain = 0
KVA1 100354Z 30004KT 04/03 A3036 RMK A01 T00350029  RH  096%=      5-min Rain = 0
KVA1 100355Z 30004KT 04/03 A3036 RMK A01 T00350029  RH  096%=      5-min Rain = 0
KVA1 100356Z 29004KT 03/03 A3036 RMK A01 T00340028  RH  095%=      5-min Rain = 0
KVA1 100357Z 29004KT 03/03 A3036 RMK A01 T00340027  RH  095%=      5-min Rain = 0
KVA1 100358Z 29004KT 03/03 A3036 RMK A01 T00330026  RH  095%=      5-min Rain = 0
KVA1 100359Z 29005KT 03/03 A3036 RMK A01 T00330026  RH  095%=      5-min Rain = 0
KVA1 100400Z 29005KT 03/03 A3036 RMK A01 T00320026  RH  096%=      5-min Rain = 0
KVA1 100401Z 29005KT 03/03 A3036 RMK A01 T00320026  RH  096%=      5-min Rain = 0
KVA1 100402Z 30005KT 03/03 A3036 RMK A01 T00320025  RH  096%=      5-min Rain = 0
KVA1 100403Z 30005KT 03/03 A3036 RMK A01 T00320026  RH  096%=      5-min Rain = 0
KVA1 100404Z 30005KT 03/03 A3036 RMK A01 T00320026  RH  096%=      5-min Rain = 0
KVA1 100405Z 30005KT 03/03 A3036 RMK A01 T00310025  RH  096%=      5-min Rain = 0
KVA1 100406Z 31004KT 03/03 A3036 RMK A01 T00310025  RH  096%=      5-min Rain = 0
KVA1 100407Z 31005KT 03/03 A3036 RMK A01 T00310025  RH  096%=      5-min Rain = 0
KVA1 100408Z 31005KT 03/02 A3036 RMK A01 T00300024  RH  096%=      5-min Rain = 0
KVA1 100409Z 31005KT 03/02 A3036 RMK A01 T00300024  RH  096%=      5-min Rain = 0
KVA1 100410Z 31005KT 03/02 A3036 RMK A01 T00300024  RH  096%=      5-min Rain = 0
KVA1 100411Z 31005KT 03/02 A3036 RMK A01 T00300024  RH  096%=      5-min Rain = 0
KVA1 100412Z 30005KT 03/02 A3036 RMK A01 T00300024  RH  096%=      5-min Rain = 0
KVA1 100413Z 31005KT 03/03 A3036 RMK A01 T00300025  RH  096%=      5-min Rain = 0
KVA1 100414Z 31005KT 03/03 A3036 RMK A01 T00300025  RH  096%=      5-min Rain = 0
KVA1 100415Z 31005KT 03/03 A3036 RMK A01 T00300025  RH  097%=      5-min Rain = 0
KVA1 100416Z 31005KT 03/03 A3036 RMK A01 T00300025  RH  097%=      5-min Rain = 0
KVA1 100417Z 31005KT 03/03 A3036 RMK A01 T00300025  RH  097%=      5-min Rain = 0
KVA1 100418Z 31005KT 03/03 A3036 RMK A01 T00300025  RH  097%=      5-min Rain = 0
KVA1 100419Z 31005KT 03/03 A3036 RMK A01 T00300025  RH  097%=      5-min Rain = 0
KVA1 100420Z 31004KT 03/03 A3036 RMK A01 T00300025  RH  097%=      5-min Rain = 0
KVA1 100421Z 31004KT 03/03 A3036 RMK A01 T00300025  RH  097%=      5-min Rain = 0
KVA1 100422Z 31004KT 03/03 A3036 RMK A01 T00300025  RH  097%=      5-min Rain = 0
KVA1 100423Z 31004KT 03/03 A3036 RMK A01 T00300025  RH  097%=      5-min Rain = 0
KVA1 100424Z 31003KT 03/03 A3036 RMK A01 T00300025  RH  096%=      5-min Rain = 0
KVA1 100425Z 31003KT 03/03 A3036 RMK A01 T00300025  RH  096%=      5-min Rain = 0
KVA1 100426Z 31003KT 03/02 A3036 RMK A01 T00300024  RH  096%=      5-min Rain = 0
KVA1 100427Z 31002KT 03/02 A3036 RMK A01 T00290024  RH  096%=      5-min Rain = 0
KVA1 100428Z 32003KT 03/02 A3036 RMK A01 T00290024  RH  096%=      5-min Rain = 0
KVA1 100429Z 32003KT 03/02 A3036 RMK A01 T00290024  RH  096%=      5-min Rain = 0
KVA1 100430Z 32003KT 03/02 A3036 RMK A01 T00290023  RH  096%=      5-min Rain = 0
KVA1 100431Z 33003KT 03/02 A3036 RMK A01 T00280023  RH  096%=      5-min Rain = 0
KVA1 100432Z 33004KT 03/02 A3037 RMK A01 T00280022  RH  096%=      5-min Rain = 0
KVA1 100433Z 33003KT 03/02 A3037 RMK A01 T00270022  RH  096%=      5-min Rain = 0
KVA1 100434Z 34004KT 03/02 A3037 RMK A01 T00270021  RH  096%=      5-min Rain = 0
KVA1 100435Z 35004KT 03/02 A3037 RMK A01 T00260021  RH  096%=      5-min Rain = 0
KVA1 100436Z 35004KT 03/02 A3037 RMK A01 T00260021  RH  096%=      5-min Rain = 0
KVA1 100437Z 35004KT 03/02 A3037 RMK A01 T00260020  RH  096%=      5-min Rain = 0
KVA1 100438Z 35004KT 03/02 A3037 RMK A01 T00260021  RH  096%=      5-min Rain = 0
KVA1 100439Z 34004KT 03/02 A3037 RMK A01 T00260021  RH  097%=      5-min Rain = 0
KVA1 100440Z 34004KT 03/02 A3037 RMK A01 T00260021  RH  097%=      5-min Rain = 0
KVA1 100441Z 34004KT 03/02 A3037 RMK A01 T00260021  RH  097%=      5-min Rain = 0
KVA1 100442Z 34004KT 03/02 A3037 RMK A01 T00260021  RH  097%=      5-min Rain = 0
KVA1 100443Z 34004KT 03/02 A3037 RMK A01 T00250021  RH  097%=      5-min Rain = 0
KVA1 100444Z 35003KT 03/02 A3037 RMK A01 T00250020  RH  097%=      5-min Rain = 0
KVA1 100445Z 36004KT 03/02 A3037 RMK A01 T00250020  RH  097%=      5-min Rain = 0
KVA1 100446Z 36003KT 03/02 A3037 RMK A01 T00250020  RH  097%=      5-min Rain = 0
KVA1 100447Z 35004KT 03/02 A3037 RMK A01 T00250020  RH  097%=      5-min Rain = 0
KVA1 100448Z 35004KT 03/02 A3037 RMK A01 T00250020  RH  097%=      5-min Rain = 0
KVA1 100449Z 36004KT 03/02 A3037 RMK A01 T00260021  RH  097%=      5-min Rain = 0
KVA1 100450Z 00004KT 03/02 A3037 RMK A01 T00260021  RH  097%=      5-min Rain = 0
KVA1 100451Z 01004KT 03/02 A3037 RMK A01 T00260022  RH  097%=      5-min Rain = 0
KVA1 100452Z 36004KT 03/02 A3037 RMK A01 T00270022  RH  097%=      5-min Rain = 0
KVA1 100453Z 34003KT 03/02 A3037 RMK A01 T00270023  RH  097%=      5-min Rain = 0
KVA1 100454Z 35003KT 03/02 A3037 RMK A01 T00270022  RH  097%=      5-min Rain = 0
KVA1 100455Z 35003KT 03/02 A3037 RMK A01 T00260021  RH  097%=      5-min Rain = 0
KVA1 100456Z 35003KT 03/02 A3037 RMK A01 T00250020  RH  097%=      5-min Rain = 0
KVA1 100457Z 34004KT 03/02 A3037 RMK A01 T00250020  RH  096%=      5-min Rain = 0
KVA1 100458Z 34003KT 03/02 A3037 RMK A01 T00250020  RH  097%=      5-min Rain = 0
KVA1 100459Z 33004KT 03/02 A3037 RMK A01 T00250020  RH  097%=      5-min Rain = 0
KVA1 100500Z 33004KT 03/02 A3037 RMK A01 T00250020  RH  097%=      5-min Rain = 0
KVA1 100501Z 32004KT 03/02 A3037 RMK A01 T00250020  RH  097%=      5-min Rain = 0
KVA1 100502Z 32004KT 03/02 A3037 RMK A01 T00250020  RH  097%=      5-min Rain = 0
KVA1 100503Z 32004KT 03/02 A3037 RMK A01 T00250020  RH  097%=      5-min Rain = 0
KVA1 100504Z 31004KT 03/02 A3037 RMK A01 T00250020  RH  097%=      5-min Rain = 0
KVA1 100505Z 31004KT 03/02 A3037 RMK A01 T00250020  RH  097%=      5-min Rain = 0
KVA1 100506Z 31004KT 03/02 A3037 RMK A01 T00250020  RH  097%=      5-min Rain = 0
KVA1 100507Z 33004KT 03/02 A3037 RMK A01 T00250020  RH  097%=      5-min Rain = 0
KVA1 100508Z 32003KT 03/02 A3037 RMK A01 T00250020  RH  097%=      5-min Rain = 0
KVA1 100509Z 31004KT 03/02 A3037 RMK A01 T00250020  RH  097%=      5-min Rain = 0
KVA1 100510Z 31003KT 03/02 A3037 RMK A01 T00250020  RH  097%=      5-min Rain = 0
KVA1 100511Z 31003KT 03/02 A3037 RMK A01 T00250020  RH  097%=      5-min Rain = 0
KVA1 100512Z 30004KT 03/02 A3037 RMK A01 T00250020  RH  097%=      5-min Rain = 0
KVA1 100513Z 30004KT 02/02 A3037 RMK A01 T00240020  RH  097%=      5-min Rain = 0
KVA1 100514Z 30004KT 02/02 A3037 RMK A01 T00240020  RH  097%=      5-min Rain = 0
KVA1 100515Z 30004KT 02/02 A3037 RMK A01 T00240020  RH  097%=      5-min Rain = 0
KVA1 100516Z 30004KT 02/02 A3036 RMK A01 T00240020  RH  097%=      5-min Rain = 0
KVA1 100517Z 30004KT 02/02 A3036 RMK A01 T00240019  RH  097%=      5-min Rain = 0
KVA1 100518Z 29004KT 02/02 A3036 RMK A01 T00240019  RH  097%=      5-min Rain = 0
KVA1 100519Z 29004KT 02/02 A3036 RMK A01 T00240019  RH  097%=      5-min Rain = 0
KVA1 100520Z 30004KT 02/02 A3036 RMK A01 T00240019  RH  097%=      5-min Rain = 0
KVA1 100521Z 30004KT 02/02 A3036 RMK A01 T00240019  RH  097%=      5-min Rain = 0
KVA1 100522Z 30004KT 02/02 A3036 RMK A01 T00230019  RH  097%=      5-min Rain = 0
KVA1 100523Z 30004KT 02/02 A3036 RMK A01 T00230019  RH  097%=      5-min Rain = 0
KVA1 100524Z 30004KT 02/02 A3036 RMK A01 T00230018  RH  097%=      5-min Rain = 0
KVA1 100525Z 30004KT 02/02 A3037 RMK A01 T00230019  RH  097%=      5-min Rain = 0
KVA1 100526Z 30003KT 02/02 A3037 RMK A01 T00230019  RH  097%=      5-min Rain = 0
KVA1 100527Z 31003KT 02/02 A3037 RMK A01 T00230019  RH  097%=      5-min Rain = 0
KVA1 100528Z 30003KT 02/02 A3037 RMK A01 T00220018  RH  097%=      5-min Rain = 0
KVA1 100529Z 29003KT 02/02 A3037 RMK A01 T00220018  RH  097%=      5-min Rain = 0
KVA1 100530Z 28003KT 02/02 A3037 RMK A01 T00220017  RH  097%=      5-min Rain = 0
KVA1 100531Z 28002KT 02/02 A3037 RMK A01 T00210017  RH  097%=      5-min Rain = 0
KVA1 100532Z 27002KT 02/02 A3037 RMK A01 T00210017  RH  097%=      5-min Rain = 0
KVA1 100533Z 27003KT 02/02 A3037 RMK A01 T00210017  RH  097%=      5-min Rain = 0
KVA1 100534Z 26003KT 02/02 A3037 RMK A01 T00220018  RH  097%=      5-min Rain = 0
KVA1 100535Z 26002KT 02/02 A3037 RMK A01 T00220018  RH  097%=      5-min Rain = 0
KVA1 100536Z 26002KT 02/02 A3037 RMK A01 T00220018  RH  097%=      5-min Rain = 0
KVA1 100537Z 25001KT 02/02 A3037 RMK A01 T00210017  RH  097%=      5-min Rain = 0
KVA1 100538Z 24001KT 02/02 A3037 RMK A01 T00210016  RH  097%=      5-min Rain = 0
KVA1 100539Z 22001KT 02/02 A3037 RMK A01 T00190015  RH  097%=      5-min Rain = 0
KVA1 100540Z 20002KT 02/01 A3037 RMK A01 T00190014  RH  097%=      5-min Rain = 0
KVA1 100541Z 17001KT 02/01 A3037 RMK A01 T00190014  RH  097%=      5-min Rain = 0
KVA1 100542Z 18001KT 02/01 A3037 RMK A01 T00180014  RH  097%=      5-min Rain = 0
KVA1 100543Z 20003KT 02/01 A3037 RMK A01 T00180014  RH  097%=      5-min Rain = 0
KVA1 100544Z 21003KT 02/01 A3037 RMK A01 T00180014  RH  097%=      5-min Rain = 0
KVA1 100545Z 21003KT 02/01 A3037 RMK A01 T00180014  RH  097%=      5-min Rain = 0
KVA1 100546Z 21004KT 02/01 A3037 RMK A01 T00180014  RH  097%=      5-min Rain = 0
KVA1 100547Z 21004KT 02/02 A3037 RMK A01 T00190015  RH  097%=      5-min Rain = 0
KVA1 100548Z 22003KT 02/02 A3037 RMK A01 T00190015  RH  097%=      5-min Rain = 0
KVA1 100549Z 21003KT 02/01 A3037 RMK A01 T00180014  RH  097%=      5-min Rain = 0
KVA1 100550Z 22002KT 02/01 A3037 RMK A01 T00180014  RH  097%=      5-min Rain = 0
KVA1 100551Z 22003KT 02/01 A3037 RMK A01 T00170013  RH  097%=      5-min Rain = 0
KVA1 100552Z 23003KT 02/01 A3037 RMK A01 T00160012  RH  097%=      5-min Rain = 0
KVA1 100553Z 24002KT 02/01 A3037 RMK A01 T00160011  RH  097%=      5-min Rain = 0
KVA1 100554Z 23002KT 02/01 A3037 RMK A01 T00160012  RH  097%=      5-min Rain = 0
KVA1 100555Z 23002KT 02/01 A3037 RMK A01 T00170013  RH  097%=      5-min Rain = 0
KVA1 100556Z 23003KT 02/01 A3037 RMK A01 T00170013  RH  097%=      5-min Rain = 0
KVA1 100557Z 24003KT 02/01 A3037 RMK A01 T00170013  RH  097%=      5-min Rain = 0
KVA1 100558Z 24003KT 02/02 A3037 RMK A01 T00180015  RH  098%=      5-min Rain = 0
KVA1 100559Z 24003KT 02/02 A3037 RMK A01 T00200017  RH  098%=      5-min Rain = 0

Page generated in 0.1205 seconds.